<?xml version="1.0" encoding="UTF-8" standalone="no" ?>
<gpx xmlns="http://www.topografix.com/GPX/1/1" xmlns:xsi="http://www.w3.org/2001/XMLSchema-instance" xsi:schemaLocation="http://www.topografix.com/GPX/1/1 http://www.topografix.com/GPX/1/1/gpx.xsd" version="1.1" creator="VisuGPX - https://www.visugpx.com">
  <metadata>
    <name>Parcours Bossapas Marche Nordique 2025</name>
  </metadata>
  <trk>
    <name><![CDATA[2025 Parcours Marche Noerdique_R]]></name>
    <trkseg>
      <trkpt lat="48.81274" lon="2.18646">
        <ele>218</ele>
        <time>2025-03-25T13:15:58Z</time>
      </trkpt>
      <trkpt lat="48.8128" lon="2.18639">
        <ele>218.36</ele>
        <time>2025-03-25T13:16:09Z</time>
      </trkpt>
      <trkpt lat="48.81283" lon="2.18621">
        <ele>218.75</ele>
        <time>2025-03-25T13:16:24Z</time>
      </trkpt>
      <trkpt lat="48.81288" lon="2.18614">
        <ele>218.34</ele>
        <time>2025-03-25T13:16:36Z</time>
      </trkpt>
      <trkpt lat="48.81293" lon="2.18605">
        <ele>218.52</ele>
        <time>2025-03-25T13:16:48Z</time>
      </trkpt>
      <trkpt lat="48.81297" lon="2.1859">
        <ele>218.48</ele>
        <time>2025-03-25T13:17:02Z</time>
      </trkpt>
      <trkpt lat="48.81306" lon="2.18574">
        <ele>199.45</ele>
        <time>2025-03-25T13:23:49Z</time>
      </trkpt>
      <trkpt lat="48.81313" lon="2.18557">
        <ele>200.2</ele>
        <time>2025-03-25T13:24:04Z</time>
      </trkpt>
      <trkpt lat="48.81326" lon="2.18548">
        <ele>200.69</ele>
        <time>2025-03-25T13:24:18Z</time>
      </trkpt>
      <trkpt lat="48.81337" lon="2.18527">
        <ele>200.36</ele>
        <time>2025-03-25T13:24:31Z</time>
      </trkpt>
      <trkpt lat="48.8134" lon="2.18508">
        <ele>199.46</ele>
        <time>2025-03-25T13:24:45Z</time>
      </trkpt>
      <trkpt lat="48.81341" lon="2.18501">
        <ele>199.21</ele>
        <time>2025-03-25T13:24:56Z</time>
      </trkpt>
      <trkpt lat="48.81351" lon="2.18489">
        <ele>198.8</ele>
        <time>2025-03-25T13:25:09Z</time>
      </trkpt>
      <trkpt lat="48.81361" lon="2.18477">
        <ele>200.18</ele>
        <time>2025-03-25T13:25:23Z</time>
      </trkpt>
      <trkpt lat="48.81375" lon="2.18468">
        <ele>201.06</ele>
        <time>2025-03-25T13:25:37Z</time>
      </trkpt>
      <trkpt lat="48.81391" lon="2.18462">
        <ele>202.15</ele>
        <time>2025-03-25T13:25:50Z</time>
      </trkpt>
      <trkpt lat="48.81405" lon="2.18461">
        <ele>203.05</ele>
        <time>2025-03-25T13:26:04Z</time>
      </trkpt>
      <trkpt lat="48.81408" lon="2.18461">
        <ele>203.66</ele>
        <time>2025-03-25T13:26:08Z</time>
      </trkpt>
      <trkpt lat="48.81422" lon="2.1846">
        <ele>203.97</ele>
        <time>2025-03-25T13:26:20Z</time>
      </trkpt>
      <trkpt lat="48.81436" lon="2.18461">
        <ele>205.28</ele>
        <time>2025-03-25T13:26:35Z</time>
      </trkpt>
      <trkpt lat="48.81449" lon="2.18465">
        <ele>207.13</ele>
        <time>2025-03-25T13:26:48Z</time>
      </trkpt>
      <trkpt lat="48.81459" lon="2.18463">
        <ele>208.76</ele>
        <time>2025-03-25T13:27:00Z</time>
      </trkpt>
      <trkpt lat="48.8147" lon="2.18464">
        <ele>209.36</ele>
        <time>2025-03-25T13:27:11Z</time>
      </trkpt>
      <trkpt lat="48.81487" lon="2.18464">
        <ele>210.15</ele>
        <time>2025-03-25T13:27:25Z</time>
      </trkpt>
      <trkpt lat="48.81502" lon="2.1846">
        <ele>211.64</ele>
        <time>2025-03-25T13:27:39Z</time>
      </trkpt>
      <trkpt lat="48.81515" lon="2.1846">
        <ele>213.1</ele>
        <time>2025-03-25T13:27:52Z</time>
      </trkpt>
      <trkpt lat="48.8153" lon="2.18458">
        <ele>214.88</ele>
        <time>2025-03-25T13:28:05Z</time>
      </trkpt>
      <trkpt lat="48.81539" lon="2.18457">
        <ele>216.67</ele>
        <time>2025-03-25T13:28:17Z</time>
      </trkpt>
      <trkpt lat="48.81551" lon="2.18456">
        <ele>218.87</ele>
        <time>2025-03-25T13:28:31Z</time>
      </trkpt>
      <trkpt lat="48.81552" lon="2.18452">
        <ele>219.03</ele>
        <time>2025-03-25T13:28:34Z</time>
      </trkpt>
      <trkpt lat="48.81554" lon="2.18441">
        <ele>219.33</ele>
        <time>2025-03-25T13:28:44Z</time>
      </trkpt>
      <trkpt lat="48.81554" lon="2.18417">
        <ele>219.69</ele>
        <time>2025-03-25T13:28:59Z</time>
      </trkpt>
      <trkpt lat="48.81553" lon="2.18389">
        <ele>220.38</ele>
        <time>2025-03-25T13:29:13Z</time>
      </trkpt>
      <trkpt lat="48.81554" lon="2.18371">
        <ele>221.79</ele>
        <time>2025-03-25T13:29:24Z</time>
      </trkpt>
      <trkpt lat="48.81553" lon="2.1835">
        <ele>221.96</ele>
        <time>2025-03-25T13:29:35Z</time>
      </trkpt>
      <trkpt lat="48.81553" lon="2.18324">
        <ele>223.09</ele>
        <time>2025-03-25T13:29:48Z</time>
      </trkpt>
      <trkpt lat="48.81552" lon="2.18305">
        <ele>223.64</ele>
        <time>2025-03-25T13:30:00Z</time>
      </trkpt>
      <trkpt lat="48.81544" lon="2.18281">
        <ele>223.24</ele>
        <time>2025-03-25T13:30:12Z</time>
      </trkpt>
      <trkpt lat="48.81538" lon="2.18271">
        <ele>222.86</ele>
        <time>2025-03-25T13:30:18Z</time>
      </trkpt>
      <trkpt lat="48.81525" lon="2.18249">
        <ele>223.18</ele>
        <time>2025-03-25T13:30:31Z</time>
      </trkpt>
      <trkpt lat="48.81516" lon="2.18233">
        <ele>223.38</ele>
        <time>2025-03-25T13:30:44Z</time>
      </trkpt>
      <trkpt lat="48.81507" lon="2.1822">
        <ele>223.32</ele>
        <time>2025-03-25T13:30:54Z</time>
      </trkpt>
      <trkpt lat="48.81493" lon="2.18192">
        <ele>223.04</ele>
        <time>2025-03-25T13:31:12Z</time>
      </trkpt>
      <trkpt lat="48.81487" lon="2.18163">
        <ele>223.44</ele>
        <time>2025-03-25T13:31:25Z</time>
      </trkpt>
      <trkpt lat="48.8148" lon="2.18142">
        <ele>223.69</ele>
        <time>2025-03-25T13:31:36Z</time>
      </trkpt>
      <trkpt lat="48.81476" lon="2.18116">
        <ele>223.29</ele>
        <time>2025-03-25T13:31:49Z</time>
      </trkpt>
      <trkpt lat="48.81474" lon="2.18088">
        <ele>222.7</ele>
        <time>2025-03-25T13:32:03Z</time>
      </trkpt>
      <trkpt lat="48.81478" lon="2.18063">
        <ele>222.59</ele>
        <time>2025-03-25T13:32:15Z</time>
      </trkpt>
      <trkpt lat="48.81483" lon="2.18035">
        <ele>220.26</ele>
        <time>2025-03-25T13:32:28Z</time>
      </trkpt>
      <trkpt lat="48.81484" lon="2.1801">
        <ele>218.92</ele>
        <time>2025-03-25T13:32:40Z</time>
      </trkpt>
      <trkpt lat="48.81484" lon="2.18006">
        <ele>218.58</ele>
        <time>2025-03-25T13:32:42Z</time>
      </trkpt>
      <trkpt lat="48.81487" lon="2.17984">
        <ele>217.16</ele>
        <time>2025-03-25T13:32:53Z</time>
      </trkpt>
      <trkpt lat="48.81485" lon="2.1797">
        <ele>215.27</ele>
        <time>2025-03-25T13:33:04Z</time>
      </trkpt>
      <trkpt lat="48.81485" lon="2.17942">
        <ele>211.94</ele>
        <time>2025-03-25T13:33:19Z</time>
      </trkpt>
      <trkpt lat="48.81489" lon="2.17911">
        <ele>209.53</ele>
        <time>2025-03-25T13:33:36Z</time>
      </trkpt>
      <trkpt lat="48.81488" lon="2.17905">
        <ele>209.02</ele>
        <time>2025-03-25T13:33:38Z</time>
      </trkpt>
      <trkpt lat="48.81486" lon="2.17891">
        <ele>208.17</ele>
        <time>2025-03-25T13:33:47Z</time>
      </trkpt>
      <trkpt lat="48.81486" lon="2.1788">
        <ele>207.27</ele>
        <time>2025-03-25T13:33:50Z</time>
      </trkpt>
      <trkpt lat="48.81488" lon="2.17871">
        <ele>206.73</ele>
        <time>2025-03-25T13:34:13Z</time>
      </trkpt>
      <trkpt lat="48.81487" lon="2.17868">
        <ele>206.06</ele>
        <time>2025-03-25T13:34:39Z</time>
      </trkpt>
      <trkpt lat="48.81487" lon="2.17857">
        <ele>205.64</ele>
        <time>2025-03-25T13:35:07Z</time>
      </trkpt>
      <trkpt lat="48.81474" lon="2.17874">
        <ele>198.13</ele>
        <time>2025-03-25T13:38:03Z</time>
      </trkpt>
      <trkpt lat="48.81467" lon="2.17889">
        <ele>195.89</ele>
        <time>2025-03-25T13:38:17Z</time>
      </trkpt>
      <trkpt lat="48.81458" lon="2.17903">
        <ele>194.23</ele>
        <time>2025-03-25T13:38:30Z</time>
      </trkpt>
      <trkpt lat="48.81448" lon="2.17921">
        <ele>191.96</ele>
        <time>2025-03-25T13:38:45Z</time>
      </trkpt>
      <trkpt lat="48.81433" lon="2.1794">
        <ele>188.96</ele>
        <time>2025-03-25T13:39:01Z</time>
      </trkpt>
      <trkpt lat="48.8142" lon="2.17957">
        <ele>185.92</ele>
        <time>2025-03-25T13:39:17Z</time>
      </trkpt>
      <trkpt lat="48.81413" lon="2.17968">
        <ele>183.79</ele>
        <time>2025-03-25T13:39:27Z</time>
      </trkpt>
      <trkpt lat="48.814" lon="2.17986">
        <ele>182.27</ele>
        <time>2025-03-25T13:39:41Z</time>
      </trkpt>
      <trkpt lat="48.81387" lon="2.18006">
        <ele>179.94</ele>
        <time>2025-03-25T13:39:56Z</time>
      </trkpt>
      <trkpt lat="48.81375" lon="2.18019">
        <ele>176.08</ele>
        <time>2025-03-25T13:40:11Z</time>
      </trkpt>
      <trkpt lat="48.81373" lon="2.18022">
        <ele>178.56</ele>
        <time>2025-03-25T13:40:13Z</time>
      </trkpt>
      <trkpt lat="48.81366" lon="2.18032">
        <ele>175.29</ele>
        <time>2025-03-25T13:40:20Z</time>
      </trkpt>
      <trkpt lat="48.81363" lon="2.18039">
        <ele>174.4</ele>
        <time>2025-03-25T13:40:24Z</time>
      </trkpt>
      <trkpt lat="48.81353" lon="2.18051">
        <ele>171.31</ele>
        <time>2025-03-25T13:40:37Z</time>
      </trkpt>
      <trkpt lat="48.81344" lon="2.18069">
        <ele>167.86</ele>
        <time>2025-03-25T13:40:51Z</time>
      </trkpt>
      <trkpt lat="48.81329" lon="2.1809">
        <ele>165.87</ele>
        <time>2025-03-25T13:41:04Z</time>
      </trkpt>
      <trkpt lat="48.81327" lon="2.18076">
        <ele>164.98</ele>
        <time>2025-03-25T13:41:19Z</time>
      </trkpt>
      <trkpt lat="48.81324" lon="2.18057">
        <ele>164.61</ele>
        <time>2025-03-25T13:41:34Z</time>
      </trkpt>
      <trkpt lat="48.81323" lon="2.18034">
        <ele>163.69</ele>
        <time>2025-03-25T13:41:48Z</time>
      </trkpt>
      <trkpt lat="48.81317" lon="2.18009">
        <ele>163.46</ele>
        <time>2025-03-25T13:42:06Z</time>
      </trkpt>
      <trkpt lat="48.81312" lon="2.17979">
        <ele>164</ele>
        <time>2025-03-25T13:42:21Z</time>
      </trkpt>
      <trkpt lat="48.81308" lon="2.17951">
        <ele>164.93</ele>
        <time>2025-03-25T13:42:37Z</time>
      </trkpt>
      <trkpt lat="48.81306" lon="2.17927">
        <ele>165.56</ele>
        <time>2025-03-25T13:42:51Z</time>
      </trkpt>
      <trkpt lat="48.81307" lon="2.17906">
        <ele>166.9</ele>
        <time>2025-03-25T13:43:02Z</time>
      </trkpt>
      <trkpt lat="48.81307" lon="2.17888">
        <ele>168.01</ele>
        <time>2025-03-25T13:43:14Z</time>
      </trkpt>
      <trkpt lat="48.81308" lon="2.17868">
        <ele>169.33</ele>
        <time>2025-03-25T13:43:28Z</time>
      </trkpt>
      <trkpt lat="48.81313" lon="2.1785">
        <ele>172.66</ele>
        <time>2025-03-25T13:43:41Z</time>
      </trkpt>
      <trkpt lat="48.81317" lon="2.17832">
        <ele>173.86</ele>
        <time>2025-03-25T13:43:54Z</time>
      </trkpt>
      <trkpt lat="48.81325" lon="2.17822">
        <ele>176.23</ele>
        <time>2025-03-25T13:44:07Z</time>
      </trkpt>
      <trkpt lat="48.81331" lon="2.17807">
        <ele>177.97</ele>
        <time>2025-03-25T13:44:20Z</time>
      </trkpt>
      <trkpt lat="48.81338" lon="2.17795">
        <ele>180.34</ele>
        <time>2025-03-25T13:44:35Z</time>
      </trkpt>
      <trkpt lat="48.81343" lon="2.17776">
        <ele>183.39</ele>
        <time>2025-03-25T13:44:48Z</time>
      </trkpt>
      <trkpt lat="48.81352" lon="2.1776">
        <ele>184.67</ele>
        <time>2025-03-25T13:45:01Z</time>
      </trkpt>
      <trkpt lat="48.81361" lon="2.17748">
        <ele>187.35</ele>
        <time>2025-03-25T13:45:13Z</time>
      </trkpt>
      <trkpt lat="48.81368" lon="2.17732">
        <ele>188.59</ele>
        <time>2025-03-25T13:45:25Z</time>
      </trkpt>
      <trkpt lat="48.81378" lon="2.17715">
        <ele>190.99</ele>
        <time>2025-03-25T13:45:36Z</time>
      </trkpt>
      <trkpt lat="48.81388" lon="2.17698">
        <ele>192.4</ele>
        <time>2025-03-25T13:45:51Z</time>
      </trkpt>
      <trkpt lat="48.81397" lon="2.17676">
        <ele>192.36</ele>
        <time>2025-03-25T13:46:05Z</time>
      </trkpt>
      <trkpt lat="48.81411" lon="2.17658">
        <ele>192.09</ele>
        <time>2025-03-25T13:46:17Z</time>
      </trkpt>
      <trkpt lat="48.81418" lon="2.1765">
        <ele>190.35</ele>
        <time>2025-03-25T13:46:29Z</time>
      </trkpt>
      <trkpt lat="48.8143" lon="2.17659">
        <ele>187.9</ele>
        <time>2025-03-25T13:46:42Z</time>
      </trkpt>
      <trkpt lat="48.81436" lon="2.17664">
        <ele>185.8</ele>
        <time>2025-03-25T13:46:48Z</time>
      </trkpt>
      <trkpt lat="48.81451" lon="2.17679">
        <ele>183.56</ele>
        <time>2025-03-25T13:47:02Z</time>
      </trkpt>
      <trkpt lat="48.81459" lon="2.17689">
        <ele>182.13</ele>
        <time>2025-03-25T13:47:11Z</time>
      </trkpt>
      <trkpt lat="48.81478" lon="2.17702">
        <ele>180.02</ele>
        <time>2025-03-25T13:47:27Z</time>
      </trkpt>
      <trkpt lat="48.81491" lon="2.17717">
        <ele>178.07</ele>
        <time>2025-03-25T13:47:39Z</time>
      </trkpt>
      <trkpt lat="48.81503" lon="2.17727">
        <ele>176.63</ele>
        <time>2025-03-25T13:47:53Z</time>
      </trkpt>
      <trkpt lat="48.81519" lon="2.17752">
        <ele>174.78</ele>
        <time>2025-03-25T13:48:09Z</time>
      </trkpt>
      <trkpt lat="48.81537" lon="2.17769">
        <ele>173.03</ele>
        <time>2025-03-25T13:48:23Z</time>
      </trkpt>
      <trkpt lat="48.81547" lon="2.17779">
        <ele>171.64</ele>
        <time>2025-03-25T13:48:33Z</time>
      </trkpt>
      <trkpt lat="48.81564" lon="2.17793">
        <ele>169.78</ele>
        <time>2025-03-25T13:48:48Z</time>
      </trkpt>
      <trkpt lat="48.81576" lon="2.178">
        <ele>168.83</ele>
        <time>2025-03-25T13:48:56Z</time>
      </trkpt>
      <trkpt lat="48.81595" lon="2.17804">
        <ele>168.2</ele>
        <time>2025-03-25T13:49:07Z</time>
      </trkpt>
      <trkpt lat="48.81613" lon="2.17814">
        <ele>166.35</ele>
        <time>2025-03-25T13:49:21Z</time>
      </trkpt>
      <trkpt lat="48.81634" lon="2.17822">
        <ele>165.39</ele>
        <time>2025-03-25T13:49:34Z</time>
      </trkpt>
      <trkpt lat="48.81653" lon="2.17833">
        <ele>163.25</ele>
        <time>2025-03-25T13:49:48Z</time>
      </trkpt>
      <trkpt lat="48.81679" lon="2.17842">
        <ele>161.48</ele>
        <time>2025-03-25T13:50:04Z</time>
      </trkpt>
      <trkpt lat="48.81689" lon="2.17848">
        <ele>160.15</ele>
        <time>2025-03-25T13:50:13Z</time>
      </trkpt>
      <trkpt lat="48.81693" lon="2.17849">
        <ele>160.89</ele>
        <time>2025-03-25T13:50:15Z</time>
      </trkpt>
      <trkpt lat="48.81711" lon="2.1787">
        <ele>158.47</ele>
        <time>2025-03-25T13:50:29Z</time>
      </trkpt>
      <trkpt lat="48.81729" lon="2.17878">
        <ele>157.48</ele>
        <time>2025-03-25T13:50:40Z</time>
      </trkpt>
      <trkpt lat="48.8174" lon="2.17884">
        <ele>155.24</ele>
        <time>2025-03-25T13:50:48Z</time>
      </trkpt>
      <trkpt lat="48.81761" lon="2.17894">
        <ele>154</ele>
        <time>2025-03-25T13:51:03Z</time>
      </trkpt>
      <trkpt lat="48.81779" lon="2.1791">
        <ele>152.36</ele>
        <time>2025-03-25T13:51:18Z</time>
      </trkpt>
      <trkpt lat="48.81782" lon="2.17912">
        <ele>152.02</ele>
        <time>2025-03-25T13:51:20Z</time>
      </trkpt>
      <trkpt lat="48.81797" lon="2.17927">
        <ele>149.46</ele>
        <time>2025-03-25T13:51:35Z</time>
      </trkpt>
      <trkpt lat="48.81808" lon="2.17933">
        <ele>148.8</ele>
        <time>2025-03-25T13:51:44Z</time>
      </trkpt>
      <trkpt lat="48.81815" lon="2.17938">
        <ele>148.91</ele>
        <time>2025-03-25T13:51:48Z</time>
      </trkpt>
      <trkpt lat="48.81825" lon="2.17935">
        <ele>147.6</ele>
        <time>2025-03-25T13:51:54Z</time>
      </trkpt>
      <trkpt lat="48.8184" lon="2.17928">
        <ele>147.54</ele>
        <time>2025-03-25T13:52:06Z</time>
      </trkpt>
      <trkpt lat="48.81853" lon="2.17918">
        <ele>146</ele>
        <time>2025-03-25T13:52:13Z</time>
      </trkpt>
      <trkpt lat="48.81872" lon="2.17904">
        <ele>146.05</ele>
        <time>2025-03-25T13:52:26Z</time>
      </trkpt>
      <trkpt lat="48.81877" lon="2.179">
        <ele>145.37</ele>
        <time>2025-03-25T13:52:30Z</time>
      </trkpt>
      <trkpt lat="48.81891" lon="2.17892">
        <ele>145.33</ele>
        <time>2025-03-25T13:52:40Z</time>
      </trkpt>
      <trkpt lat="48.819" lon="2.17885">
        <ele>144.44</ele>
        <time>2025-03-25T13:52:47Z</time>
      </trkpt>
      <trkpt lat="48.81904" lon="2.17885">
        <ele>143.49</ele>
        <time>2025-03-25T13:53:01Z</time>
      </trkpt>
      <trkpt lat="48.81915" lon="2.17877">
        <ele>142.83</ele>
        <time>2025-03-25T13:53:14Z</time>
      </trkpt>
      <trkpt lat="48.8193" lon="2.17866">
        <ele>141.85</ele>
        <time>2025-03-25T13:53:30Z</time>
      </trkpt>
      <trkpt lat="48.81953" lon="2.1785">
        <ele>141.89</ele>
        <time>2025-03-25T13:53:45Z</time>
      </trkpt>
      <trkpt lat="48.81963" lon="2.17829">
        <ele>141.81</ele>
        <time>2025-03-25T13:54:01Z</time>
      </trkpt>
      <trkpt lat="48.81973" lon="2.17802">
        <ele>141.49</ele>
        <time>2025-03-25T13:54:17Z</time>
      </trkpt>
      <trkpt lat="48.81984" lon="2.17775">
        <ele>140.98</ele>
        <time>2025-03-25T13:54:32Z</time>
      </trkpt>
      <trkpt lat="48.81993" lon="2.1775">
        <ele>140.63</ele>
        <time>2025-03-25T13:54:45Z</time>
      </trkpt>
      <trkpt lat="48.82004" lon="2.17724">
        <ele>140.46</ele>
        <time>2025-03-25T13:55:01Z</time>
      </trkpt>
      <trkpt lat="48.8201" lon="2.17691">
        <ele>140.2</ele>
        <time>2025-03-25T13:55:14Z</time>
      </trkpt>
      <trkpt lat="48.82016" lon="2.17659">
        <ele>140.66</ele>
        <time>2025-03-25T13:55:28Z</time>
      </trkpt>
      <trkpt lat="48.82022" lon="2.17635">
        <ele>139.95</ele>
        <time>2025-03-25T13:55:40Z</time>
      </trkpt>
      <trkpt lat="48.82024" lon="2.17625">
        <ele>139.74</ele>
        <time>2025-03-25T13:55:46Z</time>
      </trkpt>
      <trkpt lat="48.82028" lon="2.17607">
        <ele>140.21</ele>
        <time>2025-03-25T13:55:54Z</time>
      </trkpt>
      <trkpt lat="48.82031" lon="2.17572">
        <ele>139.58</ele>
        <time>2025-03-25T13:56:10Z</time>
      </trkpt>
      <trkpt lat="48.82036" lon="2.17545">
        <ele>139.3</ele>
        <time>2025-03-25T13:56:24Z</time>
      </trkpt>
      <trkpt lat="48.82036" lon="2.17543">
        <ele>139.7</ele>
        <time>2025-03-25T13:56:25Z</time>
      </trkpt>
      <trkpt lat="48.82037" lon="2.17516">
        <ele>139.14</ele>
        <time>2025-03-25T13:56:40Z</time>
      </trkpt>
      <trkpt lat="48.82036" lon="2.17487">
        <ele>139.99</ele>
        <time>2025-03-25T13:56:55Z</time>
      </trkpt>
      <trkpt lat="48.82028" lon="2.17452">
        <ele>140.04</ele>
        <time>2025-03-25T13:57:10Z</time>
      </trkpt>
      <trkpt lat="48.8202" lon="2.17427">
        <ele>140.41</ele>
        <time>2025-03-25T13:57:24Z</time>
      </trkpt>
      <trkpt lat="48.82011" lon="2.174">
        <ele>140.88</ele>
        <time>2025-03-25T13:57:39Z</time>
      </trkpt>
      <trkpt lat="48.82005" lon="2.17372">
        <ele>139.92</ele>
        <time>2025-03-25T13:57:54Z</time>
      </trkpt>
      <trkpt lat="48.81996" lon="2.17343">
        <ele>139.69</ele>
        <time>2025-03-25T13:58:07Z</time>
      </trkpt>
      <trkpt lat="48.81988" lon="2.17321">
        <ele>139.49</ele>
        <time>2025-03-25T13:58:22Z</time>
      </trkpt>
      <trkpt lat="48.81982" lon="2.17307">
        <ele>140.27</ele>
        <time>2025-03-25T13:58:31Z</time>
      </trkpt>
      <trkpt lat="48.81973" lon="2.17288">
        <ele>139.97</ele>
        <time>2025-03-25T13:58:43Z</time>
      </trkpt>
      <trkpt lat="48.81958" lon="2.17256">
        <ele>140.48</ele>
        <time>2025-03-25T13:58:55Z</time>
      </trkpt>
      <trkpt lat="48.81949" lon="2.17236">
        <ele>139.95</ele>
        <time>2025-03-25T13:59:08Z</time>
      </trkpt>
      <trkpt lat="48.8194" lon="2.17215">
        <ele>139.98</ele>
        <time>2025-03-25T13:59:22Z</time>
      </trkpt>
      <trkpt lat="48.81927" lon="2.17194">
        <ele>140.26</ele>
        <time>2025-03-25T13:59:33Z</time>
      </trkpt>
      <trkpt lat="48.81918" lon="2.17181">
        <ele>140.16</ele>
        <time>2025-03-25T13:59:44Z</time>
      </trkpt>
      <trkpt lat="48.81905" lon="2.17179">
        <ele>139.36</ele>
        <time>2025-03-25T14:00:07Z</time>
      </trkpt>
      <trkpt lat="48.81902" lon="2.17167">
        <ele>139.65</ele>
        <time>2025-03-25T14:00:17Z</time>
      </trkpt>
      <trkpt lat="48.81892" lon="2.1714">
        <ele>139.1</ele>
        <time>2025-03-25T14:00:30Z</time>
      </trkpt>
      <trkpt lat="48.81877" lon="2.17126">
        <ele>138.15</ele>
        <time>2025-03-25T14:00:44Z</time>
      </trkpt>
      <trkpt lat="48.81862" lon="2.17112">
        <ele>137.68</ele>
        <time>2025-03-25T14:00:58Z</time>
      </trkpt>
      <trkpt lat="48.81846" lon="2.17104">
        <ele>138.03</ele>
        <time>2025-03-25T14:01:11Z</time>
      </trkpt>
      <trkpt lat="48.81835" lon="2.17098">
        <ele>137.65</ele>
        <time>2025-03-25T14:01:19Z</time>
      </trkpt>
      <trkpt lat="48.81831" lon="2.17093">
        <ele>138.43</ele>
        <time>2025-03-25T14:01:22Z</time>
      </trkpt>
      <trkpt lat="48.81824" lon="2.17087">
        <ele>138.04</ele>
        <time>2025-03-25T14:01:31Z</time>
      </trkpt>
      <trkpt lat="48.81816" lon="2.1708">
        <ele>137.78</ele>
        <time>2025-03-25T14:01:39Z</time>
      </trkpt>
      <trkpt lat="48.81801" lon="2.17071">
        <ele>137.88</ele>
        <time>2025-03-25T14:01:52Z</time>
      </trkpt>
      <trkpt lat="48.81792" lon="2.17063">
        <ele>137.21</ele>
        <time>2025-03-25T14:01:59Z</time>
      </trkpt>
      <trkpt lat="48.81769" lon="2.1704">
        <ele>137.52</ele>
        <time>2025-03-25T14:02:14Z</time>
      </trkpt>
      <trkpt lat="48.81764" lon="2.17053">
        <ele>137.6</ele>
        <time>2025-03-25T14:02:29Z</time>
      </trkpt>
      <trkpt lat="48.81762" lon="2.17086">
        <ele>139.02</ele>
        <time>2025-03-25T14:02:47Z</time>
      </trkpt>
      <trkpt lat="48.81761" lon="2.17115">
        <ele>140.23</ele>
        <time>2025-03-25T14:03:01Z</time>
      </trkpt>
      <trkpt lat="48.81756" lon="2.17149">
        <ele>142.17</ele>
        <time>2025-03-25T14:03:17Z</time>
      </trkpt>
      <trkpt lat="48.81751" lon="2.17188">
        <ele>143.96</ele>
        <time>2025-03-25T14:03:35Z</time>
      </trkpt>
      <trkpt lat="48.81748" lon="2.1721">
        <ele>146.17</ele>
        <time>2025-03-25T14:03:51Z</time>
      </trkpt>
      <trkpt lat="48.81745" lon="2.17223">
        <ele>147.05</ele>
        <time>2025-03-25T14:03:59Z</time>
      </trkpt>
      <trkpt lat="48.81742" lon="2.17247">
        <ele>149.21</ele>
        <time>2025-03-25T14:04:12Z</time>
      </trkpt>
      <trkpt lat="48.8174" lon="2.17267">
        <ele>152.3</ele>
        <time>2025-03-25T14:04:24Z</time>
      </trkpt>
      <trkpt lat="48.81736" lon="2.17292">
        <ele>154.99</ele>
        <time>2025-03-25T14:04:38Z</time>
      </trkpt>
      <trkpt lat="48.81734" lon="2.17314">
        <ele>158.13</ele>
        <time>2025-03-25T14:04:50Z</time>
      </trkpt>
      <trkpt lat="48.81732" lon="2.17344">
        <ele>161.4</ele>
        <time>2025-03-25T14:05:08Z</time>
      </trkpt>
      <trkpt lat="48.81729" lon="2.17366">
        <ele>163.73</ele>
        <time>2025-03-25T14:05:22Z</time>
      </trkpt>
      <trkpt lat="48.81728" lon="2.17395">
        <ele>165.2</ele>
        <time>2025-03-25T14:05:37Z</time>
      </trkpt>
      <trkpt lat="48.81726" lon="2.17404">
        <ele>165.98</ele>
        <time>2025-03-25T14:05:43Z</time>
      </trkpt>
      <trkpt lat="48.81725" lon="2.17407">
        <ele>166.42</ele>
        <time>2025-03-25T14:05:45Z</time>
      </trkpt>
      <trkpt lat="48.81723" lon="2.17431">
        <ele>166.96</ele>
        <time>2025-03-25T14:05:59Z</time>
      </trkpt>
      <trkpt lat="48.8172" lon="2.17447">
        <ele>166.35</ele>
        <time>2025-03-25T14:06:15Z</time>
      </trkpt>
      <trkpt lat="48.81722" lon="2.17454">
        <ele>165</ele>
        <time>2025-03-25T14:09:21Z</time>
      </trkpt>
      <trkpt lat="48.81719" lon="2.17476">
        <ele>164.41</ele>
        <time>2025-03-25T14:11:09Z</time>
      </trkpt>
      <trkpt lat="48.8172" lon="2.17488">
        <ele>164.49</ele>
        <time>2025-03-25T14:11:24Z</time>
      </trkpt>
      <trkpt lat="48.81718" lon="2.17512">
        <ele>163.76</ele>
        <time>2025-03-25T14:11:40Z</time>
      </trkpt>
      <trkpt lat="48.81714" lon="2.17537">
        <ele>163.5</ele>
        <time>2025-03-25T14:11:54Z</time>
      </trkpt>
      <trkpt lat="48.81712" lon="2.17557">
        <ele>162.92</ele>
        <time>2025-03-25T14:12:09Z</time>
      </trkpt>
      <trkpt lat="48.81707" lon="2.17565">
        <ele>162.58</ele>
        <time>2025-03-25T14:12:19Z</time>
      </trkpt>
      <trkpt lat="48.81694" lon="2.17567">
        <ele>163.12</ele>
        <time>2025-03-25T14:12:30Z</time>
      </trkpt>
      <trkpt lat="48.81682" lon="2.17571">
        <ele>162.29</ele>
        <time>2025-03-25T14:12:43Z</time>
      </trkpt>
      <trkpt lat="48.8167" lon="2.17572">
        <ele>162.42</ele>
        <time>2025-03-25T14:12:52Z</time>
      </trkpt>
      <trkpt lat="48.81665" lon="2.17573">
        <ele>162.63</ele>
        <time>2025-03-25T14:12:57Z</time>
      </trkpt>
      <trkpt lat="48.81653" lon="2.17578">
        <ele>162.19</ele>
        <time>2025-03-25T14:13:08Z</time>
      </trkpt>
      <trkpt lat="48.81635" lon="2.17581">
        <ele>161.14</ele>
        <time>2025-03-25T14:13:23Z</time>
      </trkpt>
      <trkpt lat="48.81621" lon="2.17585">
        <ele>160.99</ele>
        <time>2025-03-25T14:13:35Z</time>
      </trkpt>
      <trkpt lat="48.81606" lon="2.17592">
        <ele>160.44</ele>
        <time>2025-03-25T14:13:47Z</time>
      </trkpt>
      <trkpt lat="48.81586" lon="2.17596">
        <ele>159.67</ele>
        <time>2025-03-25T14:14:02Z</time>
      </trkpt>
      <trkpt lat="48.81568" lon="2.17606">
        <ele>156.79</ele>
        <time>2025-03-25T14:14:17Z</time>
      </trkpt>
      <trkpt lat="48.81556" lon="2.17606">
        <ele>154.18</ele>
        <time>2025-03-25T14:14:28Z</time>
      </trkpt>
      <trkpt lat="48.81544" lon="2.17611">
        <ele>152.08</ele>
        <time>2025-03-25T14:14:37Z</time>
      </trkpt>
      <trkpt lat="48.81527" lon="2.17615">
        <ele>149.36</ele>
        <time>2025-03-25T14:14:51Z</time>
      </trkpt>
      <trkpt lat="48.81512" lon="2.17618">
        <ele>148.09</ele>
        <time>2025-03-25T14:15:04Z</time>
      </trkpt>
      <trkpt lat="48.81508" lon="2.17611">
        <ele>148.72</ele>
        <time>2025-03-25T14:15:16Z</time>
      </trkpt>
      <trkpt lat="48.81511" lon="2.17583">
        <ele>150.03</ele>
        <time>2025-03-25T14:15:30Z</time>
      </trkpt>
      <trkpt lat="48.8151" lon="2.17552">
        <ele>151.43</ele>
        <time>2025-03-25T14:15:43Z</time>
      </trkpt>
      <trkpt lat="48.81512" lon="2.17525">
        <ele>150.46</ele>
        <time>2025-03-25T14:15:56Z</time>
      </trkpt>
      <trkpt lat="48.81514" lon="2.17498">
        <ele>149.92</ele>
        <time>2025-03-25T14:16:10Z</time>
      </trkpt>
      <trkpt lat="48.81515" lon="2.17474">
        <ele>151.31</ele>
        <time>2025-03-25T14:16:21Z</time>
      </trkpt>
      <trkpt lat="48.81516" lon="2.17446">
        <ele>151.53</ele>
        <time>2025-03-25T14:16:34Z</time>
      </trkpt>
      <trkpt lat="48.8152" lon="2.17424">
        <ele>150.81</ele>
        <time>2025-03-25T14:16:45Z</time>
      </trkpt>
      <trkpt lat="48.81521" lon="2.17416">
        <ele>149.81</ele>
        <time>2025-03-25T14:16:49Z</time>
      </trkpt>
      <trkpt lat="48.81525" lon="2.17387">
        <ele>147.19</ele>
        <time>2025-03-25T14:17:02Z</time>
      </trkpt>
      <trkpt lat="48.81527" lon="2.17378">
        <ele>146.53</ele>
        <time>2025-03-25T14:17:06Z</time>
      </trkpt>
      <trkpt lat="48.81529" lon="2.17351">
        <ele>144.99</ele>
        <time>2025-03-25T14:17:17Z</time>
      </trkpt>
      <trkpt lat="48.81531" lon="2.17336">
        <ele>143.24</ele>
        <time>2025-03-25T14:17:25Z</time>
      </trkpt>
      <trkpt lat="48.81533" lon="2.17311">
        <ele>140.56</ele>
        <time>2025-03-25T14:17:39Z</time>
      </trkpt>
      <trkpt lat="48.81541" lon="2.17284">
        <ele>138</ele>
        <time>2025-03-25T14:17:54Z</time>
      </trkpt>
      <trkpt lat="48.81543" lon="2.17253">
        <ele>136.26</ele>
        <time>2025-03-25T14:18:08Z</time>
      </trkpt>
      <trkpt lat="48.81547" lon="2.1722">
        <ele>134.44</ele>
        <time>2025-03-25T14:18:23Z</time>
      </trkpt>
      <trkpt lat="48.81549" lon="2.17214">
        <ele>134.29</ele>
        <time>2025-03-25T14:18:26Z</time>
      </trkpt>
      <trkpt lat="48.8155" lon="2.1721">
        <ele>134.41</ele>
        <time>2025-03-25T14:18:28Z</time>
      </trkpt>
      <trkpt lat="48.81553" lon="2.172">
        <ele>133.57</ele>
        <time>2025-03-25T14:18:33Z</time>
      </trkpt>
      <trkpt lat="48.81558" lon="2.17181">
        <ele>132.9</ele>
        <time>2025-03-25T14:18:42Z</time>
      </trkpt>
      <trkpt lat="48.81562" lon="2.17171">
        <ele>132.54</ele>
        <time>2025-03-25T14:18:50Z</time>
      </trkpt>
      <trkpt lat="48.81564" lon="2.17164">
        <ele>131.5</ele>
        <time>2025-03-25T14:18:56Z</time>
      </trkpt>
      <trkpt lat="48.81569" lon="2.17144">
        <ele>130.89</ele>
        <time>2025-03-25T14:19:06Z</time>
      </trkpt>
      <trkpt lat="48.81575" lon="2.17121">
        <ele>130.13</ele>
        <time>2025-03-25T14:19:18Z</time>
      </trkpt>
      <trkpt lat="48.81578" lon="2.171">
        <ele>129.41</ele>
        <time>2025-03-25T14:19:28Z</time>
      </trkpt>
      <trkpt lat="48.81579" lon="2.1709">
        <ele>129.15</ele>
        <time>2025-03-25T14:19:32Z</time>
      </trkpt>
      <trkpt lat="48.81581" lon="2.17069">
        <ele>128.05</ele>
        <time>2025-03-25T14:19:42Z</time>
      </trkpt>
      <trkpt lat="48.81586" lon="2.17041">
        <ele>127.6</ele>
        <time>2025-03-25T14:19:56Z</time>
      </trkpt>
      <trkpt lat="48.81588" lon="2.16998">
        <ele>127.3</ele>
        <time>2025-03-25T14:20:13Z</time>
      </trkpt>
      <trkpt lat="48.81596" lon="2.16963">
        <ele>128.42</ele>
        <time>2025-03-25T14:20:29Z</time>
      </trkpt>
      <trkpt lat="48.81599" lon="2.16944">
        <ele>128.21</ele>
        <time>2025-03-25T14:20:39Z</time>
      </trkpt>
      <trkpt lat="48.81598" lon="2.16929">
        <ele>127.51</ele>
        <time>2025-03-25T14:20:45Z</time>
      </trkpt>
      <trkpt lat="48.816" lon="2.16921">
        <ele>126.9</ele>
        <time>2025-03-25T14:20:50Z</time>
      </trkpt>
      <trkpt lat="48.816" lon="2.16916">
        <ele>126.77</ele>
        <time>2025-03-25T14:20:52Z</time>
      </trkpt>
      <trkpt lat="48.816" lon="2.1691">
        <ele>126.6</ele>
        <time>2025-03-25T14:20:55Z</time>
      </trkpt>
      <trkpt lat="48.81602" lon="2.16901">
        <ele>126.81</ele>
        <time>2025-03-25T14:21:00Z</time>
      </trkpt>
      <trkpt lat="48.81607" lon="2.16876">
        <ele>126.94</ele>
        <time>2025-03-25T14:21:12Z</time>
      </trkpt>
      <trkpt lat="48.8161" lon="2.16845">
        <ele>126.97</ele>
        <time>2025-03-25T14:21:26Z</time>
      </trkpt>
      <trkpt lat="48.81615" lon="2.16811">
        <ele>127.03</ele>
        <time>2025-03-25T14:21:42Z</time>
      </trkpt>
      <trkpt lat="48.81618" lon="2.16801">
        <ele>127.07</ele>
        <time>2025-03-25T14:21:48Z</time>
      </trkpt>
      <trkpt lat="48.81624" lon="2.1677">
        <ele>126.87</ele>
        <time>2025-03-25T14:22:02Z</time>
      </trkpt>
      <trkpt lat="48.81624" lon="2.16759">
        <ele>127.14</ele>
        <time>2025-03-25T14:22:06Z</time>
      </trkpt>
      <trkpt lat="48.81625" lon="2.16753">
        <ele>127.39</ele>
        <time>2025-03-25T14:22:08Z</time>
      </trkpt>
      <trkpt lat="48.81628" lon="2.1673">
        <ele>126.8</ele>
        <time>2025-03-25T14:22:19Z</time>
      </trkpt>
      <trkpt lat="48.8163" lon="2.16723">
        <ele>126.82</ele>
        <time>2025-03-25T14:22:23Z</time>
      </trkpt>
      <trkpt lat="48.81632" lon="2.16707">
        <ele>126.37</ele>
        <time>2025-03-25T14:22:29Z</time>
      </trkpt>
      <trkpt lat="48.81633" lon="2.16693">
        <ele>126.13</ele>
        <time>2025-03-25T14:22:35Z</time>
      </trkpt>
      <trkpt lat="48.81634" lon="2.16682">
        <ele>125.97</ele>
        <time>2025-03-25T14:22:40Z</time>
      </trkpt>
      <trkpt lat="48.81639" lon="2.1666">
        <ele>124.2</ele>
        <time>2025-03-25T14:22:52Z</time>
      </trkpt>
      <trkpt lat="48.81639" lon="2.16639">
        <ele>124.51</ele>
        <time>2025-03-25T14:23:04Z</time>
      </trkpt>
      <trkpt lat="48.81634" lon="2.1663">
        <ele>124.81</ele>
        <time>2025-03-25T14:23:17Z</time>
      </trkpt>
      <trkpt lat="48.81631" lon="2.16628">
        <ele>124.17</ele>
        <time>2025-03-25T14:23:35Z</time>
      </trkpt>
      <trkpt lat="48.81626" lon="2.16628">
        <ele>124.57</ele>
        <time>2025-03-25T14:23:50Z</time>
      </trkpt>
      <trkpt lat="48.81623" lon="2.16627">
        <ele>124.43</ele>
        <time>2025-03-25T14:24:09Z</time>
      </trkpt>
      <trkpt lat="48.81614" lon="2.16629">
        <ele>125.13</ele>
        <time>2025-03-25T14:24:18Z</time>
      </trkpt>
      <trkpt lat="48.81603" lon="2.16633">
        <ele>126.35</ele>
        <time>2025-03-25T14:24:26Z</time>
      </trkpt>
      <trkpt lat="48.81597" lon="2.16634">
        <ele>126.22</ele>
        <time>2025-03-25T14:24:31Z</time>
      </trkpt>
      <trkpt lat="48.81588" lon="2.16635">
        <ele>126.6</ele>
        <time>2025-03-25T14:24:38Z</time>
      </trkpt>
      <trkpt lat="48.81573" lon="2.16635">
        <ele>127.45</ele>
        <time>2025-03-25T14:24:49Z</time>
      </trkpt>
      <trkpt lat="48.81571" lon="2.16635">
        <ele>127.14</ele>
        <time>2025-03-25T14:24:50Z</time>
      </trkpt>
      <trkpt lat="48.81554" lon="2.16635">
        <ele>127.95</ele>
        <time>2025-03-25T14:25:02Z</time>
      </trkpt>
      <trkpt lat="48.81534" lon="2.16636">
        <ele>128.37</ele>
        <time>2025-03-25T14:25:17Z</time>
      </trkpt>
      <trkpt lat="48.81515" lon="2.16637">
        <ele>129.3</ele>
        <time>2025-03-25T14:25:30Z</time>
      </trkpt>
      <trkpt lat="48.81501" lon="2.16641">
        <ele>130.92</ele>
        <time>2025-03-25T14:25:43Z</time>
      </trkpt>
      <trkpt lat="48.81481" lon="2.16636">
        <ele>131.53</ele>
        <time>2025-03-25T14:25:57Z</time>
      </trkpt>
      <trkpt lat="48.81464" lon="2.1664">
        <ele>132</ele>
        <time>2025-03-25T14:26:09Z</time>
      </trkpt>
      <trkpt lat="48.8144" lon="2.16643">
        <ele>132.89</ele>
        <time>2025-03-25T14:26:25Z</time>
      </trkpt>
      <trkpt lat="48.81427" lon="2.16644">
        <ele>133.86</ele>
        <time>2025-03-25T14:26:35Z</time>
      </trkpt>
      <trkpt lat="48.8141" lon="2.16643">
        <ele>135.35</ele>
        <time>2025-03-25T14:26:50Z</time>
      </trkpt>
      <trkpt lat="48.81401" lon="2.16642">
        <ele>136.27</ele>
        <time>2025-03-25T14:26:58Z</time>
      </trkpt>
      <trkpt lat="48.81387" lon="2.16646">
        <ele>136.27</ele>
        <time>2025-03-25T14:27:10Z</time>
      </trkpt>
      <trkpt lat="48.81377" lon="2.16647">
        <ele>136.73</ele>
        <time>2025-03-25T14:27:17Z</time>
      </trkpt>
      <trkpt lat="48.81373" lon="2.16648">
        <ele>136.78</ele>
        <time>2025-03-25T14:27:20Z</time>
      </trkpt>
      <trkpt lat="48.81366" lon="2.16645">
        <ele>137.42</ele>
        <time>2025-03-25T14:27:25Z</time>
      </trkpt>
      <trkpt lat="48.81351" lon="2.16646">
        <ele>137.36</ele>
        <time>2025-03-25T14:27:37Z</time>
      </trkpt>
      <trkpt lat="48.81337" lon="2.16645">
        <ele>137.39</ele>
        <time>2025-03-25T14:27:46Z</time>
      </trkpt>
      <trkpt lat="48.81325" lon="2.16644">
        <ele>138.16</ele>
        <time>2025-03-25T14:27:57Z</time>
      </trkpt>
      <trkpt lat="48.81317" lon="2.16642">
        <ele>137.78</ele>
        <time>2025-03-25T14:28:02Z</time>
      </trkpt>
      <trkpt lat="48.81307" lon="2.16644">
        <ele>138.89</ele>
        <time>2025-03-25T14:28:10Z</time>
      </trkpt>
      <trkpt lat="48.81292" lon="2.16644">
        <ele>140.61</ele>
        <time>2025-03-25T14:28:22Z</time>
      </trkpt>
      <trkpt lat="48.81277" lon="2.16649">
        <ele>144.12</ele>
        <time>2025-03-25T14:28:36Z</time>
      </trkpt>
      <trkpt lat="48.81264" lon="2.1665">
        <ele>147.29</ele>
        <time>2025-03-25T14:28:48Z</time>
      </trkpt>
      <trkpt lat="48.81251" lon="2.16648">
        <ele>150.6</ele>
        <time>2025-03-25T14:29:02Z</time>
      </trkpt>
      <trkpt lat="48.81238" lon="2.16651">
        <ele>152.87</ele>
        <time>2025-03-25T14:29:17Z</time>
      </trkpt>
      <trkpt lat="48.81231" lon="2.16651">
        <ele>152.33</ele>
        <time>2025-03-25T14:29:27Z</time>
      </trkpt>
      <trkpt lat="48.81229" lon="2.16655">
        <ele>152.48</ele>
        <time>2025-03-25T14:29:40Z</time>
      </trkpt>
      <trkpt lat="48.81227" lon="2.16659">
        <ele>152.77</ele>
        <time>2025-03-25T14:30:46Z</time>
      </trkpt>
      <trkpt lat="48.81213" lon="2.16657">
        <ele>151.82</ele>
        <time>2025-03-25T14:30:56Z</time>
      </trkpt>
      <trkpt lat="48.81207" lon="2.16657">
        <ele>151.6</ele>
        <time>2025-03-25T14:31:00Z</time>
      </trkpt>
      <trkpt lat="48.81194" lon="2.16655">
        <ele>150.53</ele>
        <time>2025-03-25T14:31:14Z</time>
      </trkpt>
      <trkpt lat="48.81177" lon="2.1666">
        <ele>148.47</ele>
        <time>2025-03-25T14:31:27Z</time>
      </trkpt>
      <trkpt lat="48.81166" lon="2.16658">
        <ele>147.04</ele>
        <time>2025-03-25T14:31:39Z</time>
      </trkpt>
      <trkpt lat="48.81151" lon="2.16657">
        <ele>144.92</ele>
        <time>2025-03-25T14:31:52Z</time>
      </trkpt>
      <trkpt lat="48.8114" lon="2.16655">
        <ele>142.67</ele>
        <time>2025-03-25T14:32:08Z</time>
      </trkpt>
      <trkpt lat="48.81129" lon="2.16657">
        <ele>141.3</ele>
        <time>2025-03-25T14:32:22Z</time>
      </trkpt>
      <trkpt lat="48.81125" lon="2.16655">
        <ele>141.11</ele>
        <time>2025-03-25T14:32:26Z</time>
      </trkpt>
      <trkpt lat="48.81122" lon="2.16652">
        <ele>140.43</ele>
        <time>2025-03-25T14:32:29Z</time>
      </trkpt>
      <trkpt lat="48.81115" lon="2.16635">
        <ele>140.82</ele>
        <time>2025-03-25T14:32:40Z</time>
      </trkpt>
      <trkpt lat="48.81102" lon="2.16616">
        <ele>140.88</ele>
        <time>2025-03-25T14:32:54Z</time>
      </trkpt>
      <trkpt lat="48.81095" lon="2.16603">
        <ele>139.74</ele>
        <time>2025-03-25T14:33:04Z</time>
      </trkpt>
      <trkpt lat="48.81087" lon="2.16589">
        <ele>139.52</ele>
        <time>2025-03-25T14:33:16Z</time>
      </trkpt>
      <trkpt lat="48.81077" lon="2.16574">
        <ele>137.85</ele>
        <time>2025-03-25T14:33:28Z</time>
      </trkpt>
      <trkpt lat="48.81061" lon="2.16551">
        <ele>137.22</ele>
        <time>2025-03-25T14:33:46Z</time>
      </trkpt>
      <trkpt lat="48.81045" lon="2.16524">
        <ele>135.44</ele>
        <time>2025-03-25T14:34:02Z</time>
      </trkpt>
      <trkpt lat="48.81042" lon="2.16505">
        <ele>134.16</ele>
        <time>2025-03-25T14:34:13Z</time>
      </trkpt>
      <trkpt lat="48.81043" lon="2.16496">
        <ele>133.51</ele>
        <time>2025-03-25T14:34:18Z</time>
      </trkpt>
      <trkpt lat="48.81042" lon="2.16493">
        <ele>133.45</ele>
        <time>2025-03-25T14:34:20Z</time>
      </trkpt>
      <trkpt lat="48.81045" lon="2.16473">
        <ele>132.11</ele>
        <time>2025-03-25T14:34:31Z</time>
      </trkpt>
      <trkpt lat="48.81047" lon="2.16454">
        <ele>130.58</ele>
        <time>2025-03-25T14:34:43Z</time>
      </trkpt>
      <trkpt lat="48.81047" lon="2.16424">
        <ele>129.1</ele>
        <time>2025-03-25T14:34:59Z</time>
      </trkpt>
      <trkpt lat="48.81047" lon="2.16403">
        <ele>128.42</ele>
        <time>2025-03-25T14:35:07Z</time>
      </trkpt>
      <trkpt lat="48.81047" lon="2.16385">
        <ele>127.92</ele>
        <time>2025-03-25T14:35:17Z</time>
      </trkpt>
      <trkpt lat="48.81047" lon="2.16368">
        <ele>127.11</ele>
        <time>2025-03-25T14:35:27Z</time>
      </trkpt>
      <trkpt lat="48.81049" lon="2.16331">
        <ele>125.24</ele>
        <time>2025-03-25T14:35:43Z</time>
      </trkpt>
      <trkpt lat="48.81049" lon="2.16329">
        <ele>125.78</ele>
        <time>2025-03-25T14:35:44Z</time>
      </trkpt>
      <trkpt lat="48.81049" lon="2.16307">
        <ele>125.23</ele>
        <time>2025-03-25T14:35:55Z</time>
      </trkpt>
      <trkpt lat="48.81046" lon="2.1629">
        <ele>124.59</ele>
        <time>2025-03-25T14:36:04Z</time>
      </trkpt>
      <trkpt lat="48.81045" lon="2.16271">
        <ele>122.78</ele>
        <time>2025-03-25T14:36:14Z</time>
      </trkpt>
      <trkpt lat="48.81045" lon="2.16264">
        <ele>122.64</ele>
        <time>2025-03-25T14:36:17Z</time>
      </trkpt>
      <trkpt lat="48.81044" lon="2.16246">
        <ele>120.9</ele>
        <time>2025-03-25T14:36:26Z</time>
      </trkpt>
      <trkpt lat="48.81042" lon="2.16224">
        <ele>119.07</ele>
        <time>2025-03-25T14:36:36Z</time>
      </trkpt>
      <trkpt lat="48.81038" lon="2.16194">
        <ele>116.06</ele>
        <time>2025-03-25T14:36:52Z</time>
      </trkpt>
      <trkpt lat="48.81039" lon="2.16173">
        <ele>115.33</ele>
        <time>2025-03-25T14:37:03Z</time>
      </trkpt>
      <trkpt lat="48.81034" lon="2.16142">
        <ele>113.24</ele>
        <time>2025-03-25T14:37:19Z</time>
      </trkpt>
      <trkpt lat="48.81027" lon="2.16112">
        <ele>111.37</ele>
        <time>2025-03-25T14:37:36Z</time>
      </trkpt>
      <trkpt lat="48.81018" lon="2.16081">
        <ele>109.81</ele>
        <time>2025-03-25T14:37:54Z</time>
      </trkpt>
      <trkpt lat="48.81008" lon="2.16051">
        <ele>109.12</ele>
        <time>2025-03-25T14:38:10Z</time>
      </trkpt>
      <trkpt lat="48.81004" lon="2.16038">
        <ele>108.77</ele>
        <time>2025-03-25T14:38:17Z</time>
      </trkpt>
      <trkpt lat="48.80997" lon="2.16031">
        <ele>107.45</ele>
        <time>2025-03-25T14:38:32Z</time>
      </trkpt>
      <trkpt lat="48.80993" lon="2.16021">
        <ele>107.35</ele>
        <time>2025-03-25T14:38:47Z</time>
      </trkpt>
      <trkpt lat="48.80989" lon="2.1601">
        <ele>107.11</ele>
        <time>2025-03-25T14:38:58Z</time>
      </trkpt>
      <trkpt lat="48.80986" lon="2.15987">
        <ele>107.34</ele>
        <time>2025-03-25T14:39:08Z</time>
      </trkpt>
      <trkpt lat="48.80983" lon="2.15964">
        <ele>107.31</ele>
        <time>2025-03-25T14:39:16Z</time>
      </trkpt>
      <trkpt lat="48.80978" lon="2.15933">
        <ele>106.88</ele>
        <time>2025-03-25T14:39:26Z</time>
      </trkpt>
      <trkpt lat="48.80988" lon="2.15904">
        <ele>106.06</ele>
        <time>2025-03-25T14:39:38Z</time>
      </trkpt>
      <trkpt lat="48.81006" lon="2.15868">
        <ele>104.72</ele>
        <time>2025-03-25T14:39:56Z</time>
      </trkpt>
      <trkpt lat="48.81026" lon="2.15835">
        <ele>105.45</ele>
        <time>2025-03-25T14:40:11Z</time>
      </trkpt>
      <trkpt lat="48.81033" lon="2.15848">
        <ele>104.96</ele>
        <time>2025-03-25T14:40:12Z</time>
      </trkpt>
      <trkpt lat="48.81041" lon="2.15854">
        <ele>105.2</ele>
        <time>2025-03-25T14:40:22Z</time>
      </trkpt>
      <trkpt lat="48.81042" lon="2.15855">
        <ele>105.44</ele>
        <time>2025-03-25T14:40:26Z</time>
      </trkpt>
      <trkpt lat="48.81048" lon="2.15864">
        <ele>106.15</ele>
        <time>2025-03-25T14:40:36Z</time>
      </trkpt>
      <trkpt lat="48.81054" lon="2.15876">
        <ele>107.31</ele>
        <time>2025-03-25T14:40:49Z</time>
      </trkpt>
      <trkpt lat="48.81058" lon="2.15888">
        <ele>109.42</ele>
        <time>2025-03-25T14:41:00Z</time>
      </trkpt>
      <trkpt lat="48.81063" lon="2.15909">
        <ele>111.97</ele>
        <time>2025-03-25T14:41:13Z</time>
      </trkpt>
      <trkpt lat="48.81072" lon="2.15923">
        <ele>114.14</ele>
        <time>2025-03-25T14:41:29Z</time>
      </trkpt>
      <trkpt lat="48.8108" lon="2.15947">
        <ele>116.16</ele>
        <time>2025-03-25T14:41:44Z</time>
      </trkpt>
      <trkpt lat="48.81088" lon="2.15962">
        <ele>117.74</ele>
        <time>2025-03-25T14:41:56Z</time>
      </trkpt>
      <trkpt lat="48.811" lon="2.15975">
        <ele>118.96</ele>
        <time>2025-03-25T14:42:09Z</time>
      </trkpt>
      <trkpt lat="48.81113" lon="2.15991">
        <ele>120.34</ele>
        <time>2025-03-25T14:42:23Z</time>
      </trkpt>
      <trkpt lat="48.81121" lon="2.16006">
        <ele>121.87</ele>
        <time>2025-03-25T14:42:36Z</time>
      </trkpt>
      <trkpt lat="48.81128" lon="2.16023">
        <ele>122.56</ele>
        <time>2025-03-25T14:42:47Z</time>
      </trkpt>
      <trkpt lat="48.8113" lon="2.16027">
        <ele>122.88</ele>
        <time>2025-03-25T14:42:49Z</time>
      </trkpt>
      <trkpt lat="48.81139" lon="2.16038">
        <ele>123.4</ele>
        <time>2025-03-25T14:42:59Z</time>
      </trkpt>
      <trkpt lat="48.8115" lon="2.16051">
        <ele>124.19</ele>
        <time>2025-03-25T14:43:09Z</time>
      </trkpt>
      <trkpt lat="48.81151" lon="2.16053">
        <ele>124.54</ele>
        <time>2025-03-25T14:43:10Z</time>
      </trkpt>
      <trkpt lat="48.81163" lon="2.16073">
        <ele>125.36</ele>
        <time>2025-03-25T14:43:25Z</time>
      </trkpt>
      <trkpt lat="48.81174" lon="2.1609">
        <ele>126.04</ele>
        <time>2025-03-25T14:43:40Z</time>
      </trkpt>
      <trkpt lat="48.81176" lon="2.16107">
        <ele>127.12</ele>
        <time>2025-03-25T14:43:52Z</time>
      </trkpt>
      <trkpt lat="48.8118" lon="2.16128">
        <ele>128.06</ele>
        <time>2025-03-25T14:44:06Z</time>
      </trkpt>
      <trkpt lat="48.81179" lon="2.16132">
        <ele>128.53</ele>
        <time>2025-03-25T14:44:08Z</time>
      </trkpt>
      <trkpt lat="48.8118" lon="2.16153">
        <ele>130.04</ele>
        <time>2025-03-25T14:44:21Z</time>
      </trkpt>
      <trkpt lat="48.81176" lon="2.16173">
        <ele>131.88</ele>
        <time>2025-03-25T14:44:34Z</time>
      </trkpt>
      <trkpt lat="48.81169" lon="2.16195">
        <ele>133.68</ele>
        <time>2025-03-25T14:44:49Z</time>
      </trkpt>
      <trkpt lat="48.8116" lon="2.16212">
        <ele>135.11</ele>
        <time>2025-03-25T14:45:01Z</time>
      </trkpt>
      <trkpt lat="48.81156" lon="2.16219">
        <ele>135.44</ele>
        <time>2025-03-25T14:45:06Z</time>
      </trkpt>
      <trkpt lat="48.81154" lon="2.16222">
        <ele>135.59</ele>
        <time>2025-03-25T14:45:08Z</time>
      </trkpt>
      <trkpt lat="48.81151" lon="2.16232">
        <ele>136.48</ele>
        <time>2025-03-25T14:45:18Z</time>
      </trkpt>
      <trkpt lat="48.8115" lon="2.16235">
        <ele>136.16</ele>
        <time>2025-03-25T14:45:20Z</time>
      </trkpt>
      <trkpt lat="48.81149" lon="2.16236">
        <ele>136.29</ele>
        <time>2025-03-25T14:45:40Z</time>
      </trkpt>
      <trkpt lat="48.81156" lon="2.16234">
        <ele>137.38</ele>
        <time>2025-03-25T14:45:56Z</time>
      </trkpt>
      <trkpt lat="48.81166" lon="2.16229">
        <ele>138.02</ele>
        <time>2025-03-25T14:46:08Z</time>
      </trkpt>
      <trkpt lat="48.81182" lon="2.16224">
        <ele>139.19</ele>
        <time>2025-03-25T14:46:23Z</time>
      </trkpt>
      <trkpt lat="48.81199" lon="2.16219">
        <ele>140.71</ele>
        <time>2025-03-25T14:46:38Z</time>
      </trkpt>
      <trkpt lat="48.81212" lon="2.16217">
        <ele>142.31</ele>
        <time>2025-03-25T14:46:53Z</time>
      </trkpt>
      <trkpt lat="48.81218" lon="2.16221">
        <ele>142.56</ele>
        <time>2025-03-25T14:47:06Z</time>
      </trkpt>
      <trkpt lat="48.81225" lon="2.16225">
        <ele>142.66</ele>
        <time>2025-03-25T14:47:21Z</time>
      </trkpt>
      <trkpt lat="48.81231" lon="2.16238">
        <ele>142.85</ele>
        <time>2025-03-25T14:47:34Z</time>
      </trkpt>
      <trkpt lat="48.81239" lon="2.16244">
        <ele>142.73</ele>
        <time>2025-03-25T14:47:48Z</time>
      </trkpt>
      <trkpt lat="48.81249" lon="2.16247">
        <ele>142.22</ele>
        <time>2025-03-25T14:48:03Z</time>
      </trkpt>
      <trkpt lat="48.81263" lon="2.16254">
        <ele>139.37</ele>
        <time>2025-03-25T14:48:17Z</time>
      </trkpt>
      <trkpt lat="48.81278" lon="2.16264">
        <ele>136.98</ele>
        <time>2025-03-25T14:48:32Z</time>
      </trkpt>
      <trkpt lat="48.81289" lon="2.16275">
        <ele>134.08</ele>
        <time>2025-03-25T14:48:45Z</time>
      </trkpt>
      <trkpt lat="48.81304" lon="2.16287">
        <ele>132.34</ele>
        <time>2025-03-25T14:49:00Z</time>
      </trkpt>
      <trkpt lat="48.81308" lon="2.16289">
        <ele>132.22</ele>
        <time>2025-03-25T14:49:03Z</time>
      </trkpt>
      <trkpt lat="48.81326" lon="2.16304">
        <ele>129.57</ele>
        <time>2025-03-25T14:49:19Z</time>
      </trkpt>
      <trkpt lat="48.81339" lon="2.16318">
        <ele>127.39</ele>
        <time>2025-03-25T14:49:34Z</time>
      </trkpt>
      <trkpt lat="48.8134" lon="2.1632">
        <ele>127.07</ele>
        <time>2025-03-25T14:49:35Z</time>
      </trkpt>
      <trkpt lat="48.81356" lon="2.16336">
        <ele>124.64</ele>
        <time>2025-03-25T14:49:48Z</time>
      </trkpt>
      <trkpt lat="48.81372" lon="2.1635">
        <ele>122.61</ele>
        <time>2025-03-25T14:50:02Z</time>
      </trkpt>
      <trkpt lat="48.81391" lon="2.16366">
        <ele>120.11</ele>
        <time>2025-03-25T14:50:17Z</time>
      </trkpt>
      <trkpt lat="48.81403" lon="2.16379">
        <ele>118.42</ele>
        <time>2025-03-25T14:50:30Z</time>
      </trkpt>
      <trkpt lat="48.81423" lon="2.16398">
        <ele>116.54</ele>
        <time>2025-03-25T14:50:48Z</time>
      </trkpt>
      <trkpt lat="48.81434" lon="2.16406">
        <ele>115.6</ele>
        <time>2025-03-25T14:50:58Z</time>
      </trkpt>
      <trkpt lat="48.81438" lon="2.16409">
        <ele>115.04</ele>
        <time>2025-03-25T14:51:07Z</time>
      </trkpt>
      <trkpt lat="48.81445" lon="2.16415">
        <ele>114.19</ele>
        <time>2025-03-25T14:51:21Z</time>
      </trkpt>
      <trkpt lat="48.81461" lon="2.16404">
        <ele>112.6</ele>
        <time>2025-03-25T14:51:38Z</time>
      </trkpt>
      <trkpt lat="48.81474" lon="2.16391">
        <ele>112.21</ele>
        <time>2025-03-25T14:51:51Z</time>
      </trkpt>
      <trkpt lat="48.81486" lon="2.16378">
        <ele>111.86</ele>
        <time>2025-03-25T14:52:04Z</time>
      </trkpt>
      <trkpt lat="48.81494" lon="2.16364">
        <ele>111.42</ele>
        <time>2025-03-25T14:52:16Z</time>
      </trkpt>
      <trkpt lat="48.81504" lon="2.16351">
        <ele>111.06</ele>
        <time>2025-03-25T14:52:26Z</time>
      </trkpt>
      <trkpt lat="48.8152" lon="2.16333">
        <ele>111.01</ele>
        <time>2025-03-25T14:52:43Z</time>
      </trkpt>
      <trkpt lat="48.81539" lon="2.16311">
        <ele>109.34</ele>
        <time>2025-03-25T14:53:00Z</time>
      </trkpt>
      <trkpt lat="48.81552" lon="2.16294">
        <ele>109.56</ele>
        <time>2025-03-25T14:53:11Z</time>
      </trkpt>
      <trkpt lat="48.81562" lon="2.16285">
        <ele>108.66</ele>
        <time>2025-03-25T14:53:21Z</time>
      </trkpt>
      <trkpt lat="48.81575" lon="2.16272">
        <ele>109.21</ele>
        <time>2025-03-25T14:53:34Z</time>
      </trkpt>
      <trkpt lat="48.81589" lon="2.16259">
        <ele>108.53</ele>
        <time>2025-03-25T14:53:47Z</time>
      </trkpt>
      <trkpt lat="48.81606" lon="2.1624">
        <ele>109.38</ele>
        <time>2025-03-25T14:54:04Z</time>
      </trkpt>
      <trkpt lat="48.81611" lon="2.16236">
        <ele>109.14</ele>
        <time>2025-03-25T14:54:07Z</time>
      </trkpt>
      <trkpt lat="48.81623" lon="2.1623">
        <ele>109.43</ele>
        <time>2025-03-25T14:54:20Z</time>
      </trkpt>
      <trkpt lat="48.81638" lon="2.16233">
        <ele>110.02</ele>
        <time>2025-03-25T14:54:35Z</time>
      </trkpt>
      <trkpt lat="48.81655" lon="2.1624">
        <ele>109.76</ele>
        <time>2025-03-25T14:54:50Z</time>
      </trkpt>
      <trkpt lat="48.81679" lon="2.16244">
        <ele>110.17</ele>
        <time>2025-03-25T14:55:08Z</time>
      </trkpt>
      <trkpt lat="48.81702" lon="2.16235">
        <ele>111.28</ele>
        <time>2025-03-25T14:55:22Z</time>
      </trkpt>
      <trkpt lat="48.81706" lon="2.16235">
        <ele>111.16</ele>
        <time>2025-03-25T14:55:28Z</time>
      </trkpt>
      <trkpt lat="48.81713" lon="2.16234">
        <ele>111.57</ele>
        <time>2025-03-25T14:55:32Z</time>
      </trkpt>
      <trkpt lat="48.81717" lon="2.16233">
        <ele>111.61</ele>
        <time>2025-03-25T14:55:35Z</time>
      </trkpt>
      <trkpt lat="48.81724" lon="2.16218">
        <ele>111.85</ele>
        <time>2025-03-25T14:55:49Z</time>
      </trkpt>
      <trkpt lat="48.81723" lon="2.16211">
        <ele>112.23</ele>
        <time>2025-03-25T14:55:56Z</time>
      </trkpt>
      <trkpt lat="48.81724" lon="2.16207">
        <ele>112.13</ele>
        <time>2025-03-25T14:55:58Z</time>
      </trkpt>
      <trkpt lat="48.81721" lon="2.16189">
        <ele>111.18</ele>
        <time>2025-03-25T14:56:11Z</time>
      </trkpt>
      <trkpt lat="48.81721" lon="2.16162">
        <ele>110.97</ele>
        <time>2025-03-25T14:56:26Z</time>
      </trkpt>
      <trkpt lat="48.81728" lon="2.16132">
        <ele>110.07</ele>
        <time>2025-03-25T14:56:42Z</time>
      </trkpt>
      <trkpt lat="48.81729" lon="2.1613">
        <ele>110.1</ele>
        <time>2025-03-25T14:56:43Z</time>
      </trkpt>
      <trkpt lat="48.81732" lon="2.16105">
        <ele>110.17</ele>
        <time>2025-03-25T14:56:56Z</time>
      </trkpt>
      <trkpt lat="48.81733" lon="2.16099">
        <ele>110.58</ele>
        <time>2025-03-25T14:56:59Z</time>
      </trkpt>
      <trkpt lat="48.81734" lon="2.16088">
        <ele>110.49</ele>
        <time>2025-03-25T14:57:04Z</time>
      </trkpt>
      <trkpt lat="48.81736" lon="2.16068">
        <ele>110.03</ele>
        <time>2025-03-25T14:57:14Z</time>
      </trkpt>
      <trkpt lat="48.81737" lon="2.16062">
        <ele>110.4</ele>
        <time>2025-03-25T14:57:18Z</time>
      </trkpt>
      <trkpt lat="48.81744" lon="2.16032">
        <ele>109.89</ele>
        <time>2025-03-25T14:57:32Z</time>
      </trkpt>
      <trkpt lat="48.8175" lon="2.16012">
        <ele>109.5</ele>
        <time>2025-03-25T14:57:42Z</time>
      </trkpt>
      <trkpt lat="48.81756" lon="2.15981">
        <ele>109.88</ele>
        <time>2025-03-25T14:57:57Z</time>
      </trkpt>
      <trkpt lat="48.81764" lon="2.15948">
        <ele>109.98</ele>
        <time>2025-03-25T14:58:12Z</time>
      </trkpt>
      <trkpt lat="48.81765" lon="2.15942">
        <ele>109.96</ele>
        <time>2025-03-25T14:58:15Z</time>
      </trkpt>
      <trkpt lat="48.81764" lon="2.15924">
        <ele>110.85</ele>
        <time>2025-03-25T14:58:24Z</time>
      </trkpt>
      <trkpt lat="48.81768" lon="2.15915">
        <ele>110.53</ele>
        <time>2025-03-25T14:58:28Z</time>
      </trkpt>
      <trkpt lat="48.8177" lon="2.15892">
        <ele>110.52</ele>
        <time>2025-03-25T14:58:40Z</time>
      </trkpt>
      <trkpt lat="48.81771" lon="2.15888">
        <ele>111.26</ele>
        <time>2025-03-25T14:58:42Z</time>
      </trkpt>
      <trkpt lat="48.81768" lon="2.15861">
        <ele>111.51</ele>
        <time>2025-03-25T14:58:54Z</time>
      </trkpt>
      <trkpt lat="48.81768" lon="2.15835">
        <ele>111.98</ele>
        <time>2025-03-25T14:59:06Z</time>
      </trkpt>
      <trkpt lat="48.81778" lon="2.15805">
        <ele>112.23</ele>
        <time>2025-03-25T14:59:20Z</time>
      </trkpt>
      <trkpt lat="48.81788" lon="2.15775">
        <ele>111.34</ele>
        <time>2025-03-25T14:59:36Z</time>
      </trkpt>
      <trkpt lat="48.81792" lon="2.15756">
        <ele>111.05</ele>
        <time>2025-03-25T14:59:46Z</time>
      </trkpt>
      <trkpt lat="48.81798" lon="2.15732">
        <ele>110.56</ele>
        <time>2025-03-25T14:59:59Z</time>
      </trkpt>
      <trkpt lat="48.81801" lon="2.15695">
        <ele>109.97</ele>
        <time>2025-03-25T15:00:17Z</time>
      </trkpt>
      <trkpt lat="48.81806" lon="2.15662">
        <ele>109.85</ele>
        <time>2025-03-25T15:00:32Z</time>
      </trkpt>
      <trkpt lat="48.81808" lon="2.15655">
        <ele>109.68</ele>
        <time>2025-03-25T15:00:36Z</time>
      </trkpt>
      <trkpt lat="48.81808" lon="2.15646">
        <ele>109.7</ele>
        <time>2025-03-25T15:00:40Z</time>
      </trkpt>
      <trkpt lat="48.81806" lon="2.15636">
        <ele>109.7</ele>
        <time>2025-03-25T15:00:44Z</time>
      </trkpt>
      <trkpt lat="48.81807" lon="2.15621">
        <ele>109.72</ele>
        <time>2025-03-25T15:00:51Z</time>
      </trkpt>
      <trkpt lat="48.81811" lon="2.15615">
        <ele>109.58</ele>
        <time>2025-03-25T15:00:54Z</time>
      </trkpt>
      <trkpt lat="48.81815" lon="2.15594">
        <ele>109.94</ele>
        <time>2025-03-25T15:01:04Z</time>
      </trkpt>
      <trkpt lat="48.81821" lon="2.1558">
        <ele>110.63</ele>
        <time>2025-03-25T15:01:12Z</time>
      </trkpt>
      <trkpt lat="48.81822" lon="2.15567">
        <ele>110.09</ele>
        <time>2025-03-25T15:01:20Z</time>
      </trkpt>
      <trkpt lat="48.81826" lon="2.15556">
        <ele>110.45</ele>
        <time>2025-03-25T15:01:26Z</time>
      </trkpt>
      <trkpt lat="48.81827" lon="2.15547">
        <ele>110.25</ele>
        <time>2025-03-25T15:01:31Z</time>
      </trkpt>
      <trkpt lat="48.81827" lon="2.15528">
        <ele>110.57</ele>
        <time>2025-03-25T15:01:43Z</time>
      </trkpt>
      <trkpt lat="48.81827" lon="2.15525">
        <ele>110.39</ele>
        <time>2025-03-25T15:01:44Z</time>
      </trkpt>
      <trkpt lat="48.81835" lon="2.15507">
        <ele>110.6</ele>
        <time>2025-03-25T15:01:55Z</time>
      </trkpt>
      <trkpt lat="48.81835" lon="2.15483">
        <ele>111.06</ele>
        <time>2025-03-25T15:02:08Z</time>
      </trkpt>
      <trkpt lat="48.81842" lon="2.15451">
        <ele>113.85</ele>
        <time>2025-03-25T15:02:23Z</time>
      </trkpt>
      <trkpt lat="48.81847" lon="2.15423">
        <ele>114.18</ele>
        <time>2025-03-25T15:02:38Z</time>
      </trkpt>
      <trkpt lat="48.81849" lon="2.15416">
        <ele>114.45</ele>
        <time>2025-03-25T15:02:42Z</time>
      </trkpt>
      <trkpt lat="48.81854" lon="2.15385">
        <ele>114.66</ele>
        <time>2025-03-25T15:02:55Z</time>
      </trkpt>
      <trkpt lat="48.81855" lon="2.15377">
        <ele>115.37</ele>
        <time>2025-03-25T15:02:59Z</time>
      </trkpt>
      <trkpt lat="48.81858" lon="2.15366">
        <ele>115.83</ele>
        <time>2025-03-25T15:03:05Z</time>
      </trkpt>
      <trkpt lat="48.81861" lon="2.15361">
        <ele>116.13</ele>
        <time>2025-03-25T15:03:15Z</time>
      </trkpt>
      <trkpt lat="48.81863" lon="2.15367">
        <ele>116.05</ele>
        <time>2025-03-25T15:03:21Z</time>
      </trkpt>
      <trkpt lat="48.81868" lon="2.15379">
        <ele>115.06</ele>
        <time>2025-03-25T15:03:29Z</time>
      </trkpt>
      <trkpt lat="48.81877" lon="2.15395">
        <ele>114.55</ele>
        <time>2025-03-25T15:03:43Z</time>
      </trkpt>
      <trkpt lat="48.81886" lon="2.15407">
        <ele>114.3</ele>
        <time>2025-03-25T15:03:52Z</time>
      </trkpt>
      <trkpt lat="48.81894" lon="2.15417">
        <ele>114.19</ele>
        <time>2025-03-25T15:04:00Z</time>
      </trkpt>
      <trkpt lat="48.81895" lon="2.15422">
        <ele>114.48</ele>
        <time>2025-03-25T15:04:02Z</time>
      </trkpt>
      <trkpt lat="48.81906" lon="2.15442">
        <ele>114.5</ele>
        <time>2025-03-25T15:04:16Z</time>
      </trkpt>
      <trkpt lat="48.81913" lon="2.15451">
        <ele>114.18</ele>
        <time>2025-03-25T15:04:22Z</time>
      </trkpt>
      <trkpt lat="48.8192" lon="2.15469">
        <ele>114.09</ele>
        <time>2025-03-25T15:04:33Z</time>
      </trkpt>
      <trkpt lat="48.8192" lon="2.15474">
        <ele>114.07</ele>
        <time>2025-03-25T15:04:36Z</time>
      </trkpt>
      <trkpt lat="48.81919" lon="2.15481">
        <ele>112.76</ele>
        <time>2025-03-25T15:04:39Z</time>
      </trkpt>
      <trkpt lat="48.8192" lon="2.15486">
        <ele>112.57</ele>
        <time>2025-03-25T15:04:42Z</time>
      </trkpt>
      <trkpt lat="48.81919" lon="2.15501">
        <ele>112.26</ele>
        <time>2025-03-25T15:04:49Z</time>
      </trkpt>
      <trkpt lat="48.81921" lon="2.15537">
        <ele>111.52</ele>
        <time>2025-03-25T15:05:04Z</time>
      </trkpt>
      <trkpt lat="48.81924" lon="2.15555">
        <ele>110.83</ele>
        <time>2025-03-25T15:05:13Z</time>
      </trkpt>
      <trkpt lat="48.81933" lon="2.15574">
        <ele>110.9</ele>
        <time>2025-03-25T15:05:26Z</time>
      </trkpt>
      <trkpt lat="48.81934" lon="2.15587">
        <ele>110.68</ele>
        <time>2025-03-25T15:05:34Z</time>
      </trkpt>
      <trkpt lat="48.81935" lon="2.15599">
        <ele>110.44</ele>
        <time>2025-03-25T15:05:39Z</time>
      </trkpt>
      <trkpt lat="48.81939" lon="2.15609">
        <ele>110.22</ele>
        <time>2025-03-25T15:05:44Z</time>
      </trkpt>
      <trkpt lat="48.81946" lon="2.15626">
        <ele>109.7</ele>
        <time>2025-03-25T15:05:54Z</time>
      </trkpt>
      <trkpt lat="48.81946" lon="2.15647">
        <ele>109.62</ele>
        <time>2025-03-25T15:06:07Z</time>
      </trkpt>
      <trkpt lat="48.81945" lon="2.15678">
        <ele>109.21</ele>
        <time>2025-03-25T15:06:22Z</time>
      </trkpt>
      <trkpt lat="48.81943" lon="2.15683">
        <ele>109.27</ele>
        <time>2025-03-25T15:06:24Z</time>
      </trkpt>
      <trkpt lat="48.8194" lon="2.15696">
        <ele>109.04</ele>
        <time>2025-03-25T15:06:30Z</time>
      </trkpt>
      <trkpt lat="48.81938" lon="2.15703">
        <ele>108.69</ele>
        <time>2025-03-25T15:06:34Z</time>
      </trkpt>
      <trkpt lat="48.81939" lon="2.15708">
        <ele>108.63</ele>
        <time>2025-03-25T15:06:37Z</time>
      </trkpt>
      <trkpt lat="48.81943" lon="2.15718">
        <ele>109.08</ele>
        <time>2025-03-25T15:06:42Z</time>
      </trkpt>
      <trkpt lat="48.81958" lon="2.15722">
        <ele>110.6</ele>
        <time>2025-03-25T15:06:54Z</time>
      </trkpt>
      <trkpt lat="48.81964" lon="2.15723">
        <ele>110.48</ele>
        <time>2025-03-25T15:06:58Z</time>
      </trkpt>
      <trkpt lat="48.81983" lon="2.15724">
        <ele>112.46</ele>
        <time>2025-03-25T15:07:07Z</time>
      </trkpt>
      <trkpt lat="48.82004" lon="2.15728">
        <ele>116.79</ele>
        <time>2025-03-25T15:07:18Z</time>
      </trkpt>
      <trkpt lat="48.82005" lon="2.15727">
        <ele>116.83</ele>
        <time>2025-03-25T15:07:19Z</time>
      </trkpt>
      <trkpt lat="48.82008" lon="2.15727">
        <ele>118.06</ele>
        <time>2025-03-25T15:07:22Z</time>
      </trkpt>
      <trkpt lat="48.82021" lon="2.15726">
        <ele>120.82</ele>
        <time>2025-03-25T15:07:29Z</time>
      </trkpt>
      <trkpt lat="48.82027" lon="2.15729">
        <ele>121.67</ele>
        <time>2025-03-25T15:07:33Z</time>
      </trkpt>
      <trkpt lat="48.82036" lon="2.15726">
        <ele>122.83</ele>
        <time>2025-03-25T15:07:48Z</time>
      </trkpt>
      <trkpt lat="48.82054" lon="2.15726">
        <ele>126.82</ele>
        <time>2025-03-25T15:08:03Z</time>
      </trkpt>
      <trkpt lat="48.82068" lon="2.15727">
        <ele>130.03</ele>
        <time>2025-03-25T15:08:17Z</time>
      </trkpt>
      <trkpt lat="48.82079" lon="2.15728">
        <ele>133.33</ele>
        <time>2025-03-25T15:08:31Z</time>
      </trkpt>
      <trkpt lat="48.82094" lon="2.15737">
        <ele>135.57</ele>
        <time>2025-03-25T15:08:51Z</time>
      </trkpt>
      <trkpt lat="48.82099" lon="2.15746">
        <ele>136.75</ele>
        <time>2025-03-25T15:09:03Z</time>
      </trkpt>
      <trkpt lat="48.82096" lon="2.15743">
        <ele>136.27</ele>
        <time>2025-03-25T15:09:22Z</time>
      </trkpt>
      <trkpt lat="48.82099" lon="2.15742">
        <ele>136.94</ele>
        <time>2025-03-25T15:09:45Z</time>
      </trkpt>
      <trkpt lat="48.821" lon="2.15743">
        <ele>137.05</ele>
        <time>2025-03-25T15:10:04Z</time>
      </trkpt>
      <trkpt lat="48.82098" lon="2.15766">
        <ele>137.13</ele>
        <time>2025-03-25T15:10:20Z</time>
      </trkpt>
      <trkpt lat="48.82098" lon="2.15782">
        <ele>136.86</ele>
        <time>2025-03-25T15:10:28Z</time>
      </trkpt>
      <trkpt lat="48.82097" lon="2.15813">
        <ele>136.49</ele>
        <time>2025-03-25T15:10:44Z</time>
      </trkpt>
      <trkpt lat="48.82093" lon="2.15846">
        <ele>136.88</ele>
        <time>2025-03-25T15:11:01Z</time>
      </trkpt>
      <trkpt lat="48.82089" lon="2.1586">
        <ele>136.61</ele>
        <time>2025-03-25T15:11:08Z</time>
      </trkpt>
      <trkpt lat="48.82085" lon="2.15892">
        <ele>136.11</ele>
        <time>2025-03-25T15:11:25Z</time>
      </trkpt>
      <trkpt lat="48.82085" lon="2.15924">
        <ele>137.46</ele>
        <time>2025-03-25T15:11:41Z</time>
      </trkpt>
      <trkpt lat="48.8209" lon="2.15958">
        <ele>137.92</ele>
        <time>2025-03-25T15:11:57Z</time>
      </trkpt>
      <trkpt lat="48.82101" lon="2.15972">
        <ele>137.57</ele>
        <time>2025-03-25T15:12:06Z</time>
      </trkpt>
      <trkpt lat="48.82118" lon="2.15985">
        <ele>137.96</ele>
        <time>2025-03-25T15:12:19Z</time>
      </trkpt>
      <trkpt lat="48.82137" lon="2.15993">
        <ele>138.7</ele>
        <time>2025-03-25T15:12:33Z</time>
      </trkpt>
      <trkpt lat="48.82157" lon="2.16003">
        <ele>138.71</ele>
        <time>2025-03-25T15:12:48Z</time>
      </trkpt>
      <trkpt lat="48.82176" lon="2.16019">
        <ele>138.55</ele>
        <time>2025-03-25T15:13:06Z</time>
      </trkpt>
      <trkpt lat="48.82194" lon="2.16034">
        <ele>138.29</ele>
        <time>2025-03-25T15:13:20Z</time>
      </trkpt>
      <trkpt lat="48.82212" lon="2.1605">
        <ele>136.93</ele>
        <time>2025-03-25T15:13:38Z</time>
      </trkpt>
      <trkpt lat="48.82223" lon="2.16058">
        <ele>136.93</ele>
        <time>2025-03-25T15:13:53Z</time>
      </trkpt>
      <trkpt lat="48.82225" lon="2.16058">
        <ele>136.92</ele>
        <time>2025-03-25T15:13:54Z</time>
      </trkpt>
      <trkpt lat="48.8222" lon="2.16056">
        <ele>136.25</ele>
        <time>2025-03-25T15:14:09Z</time>
      </trkpt>
      <trkpt lat="48.82218" lon="2.16057">
        <ele>135.3</ele>
        <time>2025-03-25T15:14:11Z</time>
      </trkpt>
      <trkpt lat="48.82207" lon="2.16065">
        <ele>132.62</ele>
        <time>2025-03-25T15:14:25Z</time>
      </trkpt>
      <trkpt lat="48.82205" lon="2.16067">
        <ele>131.62</ele>
        <time>2025-03-25T15:14:27Z</time>
      </trkpt>
      <trkpt lat="48.82204" lon="2.16071">
        <ele>131.32</ele>
        <time>2025-03-25T15:14:31Z</time>
      </trkpt>
      <trkpt lat="48.82198" lon="2.16077">
        <ele>127.43</ele>
        <time>2025-03-25T15:14:40Z</time>
      </trkpt>
      <trkpt lat="48.82185" lon="2.16095">
        <ele>124.79</ele>
        <time>2025-03-25T15:14:56Z</time>
      </trkpt>
      <trkpt lat="48.82171" lon="2.16104">
        <ele>121.91</ele>
        <time>2025-03-25T15:15:10Z</time>
      </trkpt>
      <trkpt lat="48.82167" lon="2.16117">
        <ele>119.09</ele>
        <time>2025-03-25T15:15:24Z</time>
      </trkpt>
      <trkpt lat="48.82155" lon="2.16131">
        <ele>115.78</ele>
        <time>2025-03-25T15:15:37Z</time>
      </trkpt>
      <trkpt lat="48.82142" lon="2.16149">
        <ele>113.75</ele>
        <time>2025-03-25T15:15:52Z</time>
      </trkpt>
      <trkpt lat="48.82132" lon="2.16168">
        <ele>112.06</ele>
        <time>2025-03-25T15:16:07Z</time>
      </trkpt>
      <trkpt lat="48.82124" lon="2.16185">
        <ele>110.84</ele>
        <time>2025-03-25T15:16:21Z</time>
      </trkpt>
      <trkpt lat="48.82123" lon="2.16188">
        <ele>111.39</ele>
        <time>2025-03-25T15:16:22Z</time>
      </trkpt>
      <trkpt lat="48.82115" lon="2.16199">
        <ele>108.62</ele>
        <time>2025-03-25T15:16:35Z</time>
      </trkpt>
      <trkpt lat="48.82105" lon="2.16209">
        <ele>106.84</ele>
        <time>2025-03-25T15:16:49Z</time>
      </trkpt>
      <trkpt lat="48.82096" lon="2.16227">
        <ele>104.92</ele>
        <time>2025-03-25T15:17:03Z</time>
      </trkpt>
      <trkpt lat="48.82084" lon="2.16249">
        <ele>103.54</ele>
        <time>2025-03-25T15:17:19Z</time>
      </trkpt>
      <trkpt lat="48.82073" lon="2.16259">
        <ele>103.15</ele>
        <time>2025-03-25T15:17:30Z</time>
      </trkpt>
      <trkpt lat="48.82063" lon="2.16277">
        <ele>102.5</ele>
        <time>2025-03-25T15:17:46Z</time>
      </trkpt>
      <trkpt lat="48.82052" lon="2.16292">
        <ele>101.16</ele>
        <time>2025-03-25T15:17:59Z</time>
      </trkpt>
      <trkpt lat="48.82041" lon="2.16305">
        <ele>100.73</ele>
        <time>2025-03-25T15:18:10Z</time>
      </trkpt>
      <trkpt lat="48.82028" lon="2.16323">
        <ele>99.65</ele>
        <time>2025-03-25T15:18:22Z</time>
      </trkpt>
      <trkpt lat="48.8202" lon="2.16331">
        <ele>99.97</ele>
        <time>2025-03-25T15:18:27Z</time>
      </trkpt>
      <trkpt lat="48.82015" lon="2.16337">
        <ele>99.79</ele>
        <time>2025-03-25T15:18:31Z</time>
      </trkpt>
      <trkpt lat="48.82011" lon="2.16343">
        <ele>99.58</ele>
        <time>2025-03-25T15:18:35Z</time>
      </trkpt>
      <trkpt lat="48.81998" lon="2.16362">
        <ele>98.57</ele>
        <time>2025-03-25T15:18:47Z</time>
      </trkpt>
      <trkpt lat="48.81996" lon="2.16365">
        <ele>98.19</ele>
        <time>2025-03-25T15:18:49Z</time>
      </trkpt>
      <trkpt lat="48.81988" lon="2.16373">
        <ele>98.46</ele>
        <time>2025-03-25T15:18:54Z</time>
      </trkpt>
      <trkpt lat="48.81985" lon="2.16388">
        <ele>98.65</ele>
        <time>2025-03-25T15:19:02Z</time>
      </trkpt>
      <trkpt lat="48.81983" lon="2.16401">
        <ele>98.17</ele>
        <time>2025-03-25T15:19:09Z</time>
      </trkpt>
      <trkpt lat="48.81982" lon="2.16409">
        <ele>97.95</ele>
        <time>2025-03-25T15:19:13Z</time>
      </trkpt>
      <trkpt lat="48.81987" lon="2.16431">
        <ele>97.71</ele>
        <time>2025-03-25T15:19:25Z</time>
      </trkpt>
      <trkpt lat="48.81988" lon="2.16435">
        <ele>97.78</ele>
        <time>2025-03-25T15:19:27Z</time>
      </trkpt>
      <trkpt lat="48.8199" lon="2.16447">
        <ele>97.6</ele>
        <time>2025-03-25T15:19:33Z</time>
      </trkpt>
      <trkpt lat="48.81992" lon="2.16458">
        <ele>98.06</ele>
        <time>2025-03-25T15:19:39Z</time>
      </trkpt>
      <trkpt lat="48.81994" lon="2.16479">
        <ele>98.18</ele>
        <time>2025-03-25T15:19:49Z</time>
      </trkpt>
      <trkpt lat="48.81994" lon="2.16483">
        <ele>97.98</ele>
        <time>2025-03-25T15:19:51Z</time>
      </trkpt>
      <trkpt lat="48.82003" lon="2.16498">
        <ele>97.6</ele>
        <time>2025-03-25T15:20:02Z</time>
      </trkpt>
      <trkpt lat="48.82001" lon="2.16515">
        <ele>97.78</ele>
        <time>2025-03-25T15:20:13Z</time>
      </trkpt>
      <trkpt lat="48.82004" lon="2.16533">
        <ele>98.6</ele>
        <time>2025-03-25T15:20:22Z</time>
      </trkpt>
      <trkpt lat="48.82006" lon="2.1656">
        <ele>98.72</ele>
        <time>2025-03-25T15:20:37Z</time>
      </trkpt>
      <trkpt lat="48.82008" lon="2.16577">
        <ele>98.68</ele>
        <time>2025-03-25T15:20:47Z</time>
      </trkpt>
      <trkpt lat="48.82007" lon="2.16583">
        <ele>98.87</ele>
        <time>2025-03-25T15:20:49Z</time>
      </trkpt>
      <trkpt lat="48.82009" lon="2.16594">
        <ele>99.12</ele>
        <time>2025-03-25T15:21:02Z</time>
      </trkpt>
      <trkpt lat="48.82013" lon="2.16604">
        <ele>98.18</ele>
        <time>2025-03-25T15:22:24Z</time>
      </trkpt>
      <trkpt lat="48.8202" lon="2.16613">
        <ele>98.8</ele>
        <time>2025-03-25T15:23:13Z</time>
      </trkpt>
      <trkpt lat="48.82021" lon="2.16622">
        <ele>99.31</ele>
        <time>2025-03-25T15:23:25Z</time>
      </trkpt>
      <trkpt lat="48.82026" lon="2.16637">
        <ele>100.38</ele>
        <time>2025-03-25T15:23:40Z</time>
      </trkpt>
      <trkpt lat="48.82044" lon="2.16665">
        <ele>101.1</ele>
        <time>2025-03-25T15:23:54Z</time>
      </trkpt>
      <trkpt lat="48.82061" lon="2.16695">
        <ele>102.26</ele>
        <time>2025-03-25T15:24:10Z</time>
      </trkpt>
      <trkpt lat="48.82089" lon="2.16736">
        <ele>104.21</ele>
        <time>2025-03-25T15:24:26Z</time>
      </trkpt>
      <trkpt lat="48.82098" lon="2.16752">
        <ele>104.99</ele>
        <time>2025-03-25T15:24:36Z</time>
      </trkpt>
      <trkpt lat="48.82124" lon="2.16793">
        <ele>114.3</ele>
        <time>2025-03-25T15:25:58Z</time>
      </trkpt>
      <trkpt lat="48.82131" lon="2.16815">
        <ele>114.07</ele>
        <time>2025-03-25T15:25:59Z</time>
      </trkpt>
      <trkpt lat="48.82135" lon="2.16821">
        <ele>117.79</ele>
        <time>2025-03-25T15:26:37Z</time>
      </trkpt>
      <trkpt lat="48.82143" lon="2.16828">
        <ele>120</ele>
        <time>2025-03-25T15:26:56Z</time>
      </trkpt>
      <trkpt lat="48.82165" lon="2.1687">
        <ele>119.85</ele>
        <time>2025-03-25T15:27:10Z</time>
      </trkpt>
      <trkpt lat="48.82185" lon="2.16921">
        <ele>117.79</ele>
        <time>2025-03-25T15:27:20Z</time>
      </trkpt>
      <trkpt lat="48.82166" lon="2.17019">
        <ele>117.64</ele>
        <time>2025-03-25T15:27:23Z</time>
      </trkpt>
      <trkpt lat="48.82157" lon="2.17055">
        <ele>116.48</ele>
        <time>2025-03-25T15:27:33Z</time>
      </trkpt>
      <trkpt lat="48.82157" lon="2.17075">
        <ele>113.42</ele>
        <time>2025-03-25T15:27:48Z</time>
      </trkpt>
      <trkpt lat="48.82153" lon="2.17096">
        <ele>110.31</ele>
        <time>2025-03-25T15:28:01Z</time>
      </trkpt>
      <trkpt lat="48.82153" lon="2.17103">
        <ele>108.83</ele>
        <time>2025-03-25T15:28:10Z</time>
      </trkpt>
      <trkpt lat="48.82148" lon="2.17108">
        <ele>106.92</ele>
        <time>2025-03-25T15:28:29Z</time>
      </trkpt>
      <trkpt lat="48.82148" lon="2.17114">
        <ele>104.97</ele>
        <time>2025-03-25T15:28:39Z</time>
      </trkpt>
      <trkpt lat="48.82145" lon="2.17134">
        <ele>102.49</ele>
        <time>2025-03-25T15:29:32Z</time>
      </trkpt>
      <trkpt lat="48.82143" lon="2.17141">
        <ele>101.79</ele>
        <time>2025-03-25T15:29:38Z</time>
      </trkpt>
      <trkpt lat="48.82154" lon="2.17158">
        <ele>101.51</ele>
        <time>2025-03-25T15:29:50Z</time>
      </trkpt>
      <trkpt lat="48.82166" lon="2.17173">
        <ele>102.32</ele>
        <time>2025-03-25T15:30:05Z</time>
      </trkpt>
      <trkpt lat="48.82191" lon="2.1719">
        <ele>104.41</ele>
        <time>2025-03-25T15:30:21Z</time>
      </trkpt>
      <trkpt lat="48.82204" lon="2.17206">
        <ele>107.02</ele>
        <time>2025-03-25T15:30:33Z</time>
      </trkpt>
      <trkpt lat="48.82219" lon="2.17217">
        <ele>108.73</ele>
        <time>2025-03-25T15:30:44Z</time>
      </trkpt>
      <trkpt lat="48.82229" lon="2.17225">
        <ele>111.61</ele>
        <time>2025-03-25T15:30:57Z</time>
      </trkpt>
      <trkpt lat="48.8224" lon="2.17238">
        <ele>114.83</ele>
        <time>2025-03-25T15:31:10Z</time>
      </trkpt>
      <trkpt lat="48.82253" lon="2.17247">
        <ele>117.25</ele>
        <time>2025-03-25T15:31:23Z</time>
      </trkpt>
      <trkpt lat="48.82265" lon="2.17258">
        <ele>120</ele>
        <time>2025-03-25T15:31:38Z</time>
      </trkpt>
      <trkpt lat="48.82279" lon="2.17272">
        <ele>123.05</ele>
        <time>2025-03-25T15:31:51Z</time>
      </trkpt>
      <trkpt lat="48.8229" lon="2.17288">
        <ele>124.28</ele>
        <time>2025-03-25T15:32:05Z</time>
      </trkpt>
      <trkpt lat="48.82298" lon="2.17297">
        <ele>124.35</ele>
        <time>2025-03-25T15:32:18Z</time>
      </trkpt>
      <trkpt lat="48.82299" lon="2.17298">
        <ele>124.56</ele>
        <time>2025-03-25T15:32:21Z</time>
      </trkpt>
      <trkpt lat="48.82302" lon="2.17312">
        <ele>123.92</ele>
        <time>2025-03-25T15:32:39Z</time>
      </trkpt>
      <trkpt lat="48.82299" lon="2.17336">
        <ele>124.25</ele>
        <time>2025-03-25T15:32:55Z</time>
      </trkpt>
      <trkpt lat="48.82296" lon="2.17362">
        <ele>124.15</ele>
        <time>2025-03-25T15:33:10Z</time>
      </trkpt>
      <trkpt lat="48.82294" lon="2.1737">
        <ele>124.01</ele>
        <time>2025-03-25T15:33:14Z</time>
      </trkpt>
      <trkpt lat="48.82294" lon="2.17386">
        <ele>123.78</ele>
        <time>2025-03-25T15:33:23Z</time>
      </trkpt>
      <trkpt lat="48.82293" lon="2.17399">
        <ele>123.88</ele>
        <time>2025-03-25T15:33:30Z</time>
      </trkpt>
      <trkpt lat="48.82292" lon="2.17408">
        <ele>123.81</ele>
        <time>2025-03-25T15:33:35Z</time>
      </trkpt>
      <trkpt lat="48.82291" lon="2.17417">
        <ele>123.53</ele>
        <time>2025-03-25T15:33:40Z</time>
      </trkpt>
      <trkpt lat="48.82288" lon="2.17433">
        <ele>123.95</ele>
        <time>2025-03-25T15:33:49Z</time>
      </trkpt>
      <trkpt lat="48.8229" lon="2.17446">
        <ele>124.4</ele>
        <time>2025-03-25T15:33:55Z</time>
      </trkpt>
      <trkpt lat="48.8229" lon="2.1745">
        <ele>124.23</ele>
        <time>2025-03-25T15:33:58Z</time>
      </trkpt>
      <trkpt lat="48.82288" lon="2.17473">
        <ele>124.12</ele>
        <time>2025-03-25T15:34:09Z</time>
      </trkpt>
      <trkpt lat="48.8229" lon="2.17493">
        <ele>124.24</ele>
        <time>2025-03-25T15:34:20Z</time>
      </trkpt>
      <trkpt lat="48.8229" lon="2.17494">
        <ele>124.16</ele>
        <time>2025-03-25T15:34:21Z</time>
      </trkpt>
      <trkpt lat="48.82291" lon="2.17503">
        <ele>124.19</ele>
        <time>2025-03-25T15:34:26Z</time>
      </trkpt>
      <trkpt lat="48.82291" lon="2.17515">
        <ele>124.1</ele>
        <time>2025-03-25T15:34:32Z</time>
      </trkpt>
      <trkpt lat="48.8229" lon="2.1753">
        <ele>123.74</ele>
        <time>2025-03-25T15:34:40Z</time>
      </trkpt>
      <trkpt lat="48.82291" lon="2.17536">
        <ele>122.77</ele>
        <time>2025-03-25T15:34:43Z</time>
      </trkpt>
      <trkpt lat="48.8229" lon="2.17554">
        <ele>122.96</ele>
        <time>2025-03-25T15:34:52Z</time>
      </trkpt>
      <trkpt lat="48.82292" lon="2.17562">
        <ele>122.82</ele>
        <time>2025-03-25T15:34:57Z</time>
      </trkpt>
      <trkpt lat="48.82294" lon="2.17578">
        <ele>122.76</ele>
        <time>2025-03-25T15:35:07Z</time>
      </trkpt>
      <trkpt lat="48.82294" lon="2.17583">
        <ele>122.97</ele>
        <time>2025-03-25T15:35:09Z</time>
      </trkpt>
      <trkpt lat="48.82295" lon="2.17592">
        <ele>122.67</ele>
        <time>2025-03-25T15:35:14Z</time>
      </trkpt>
      <trkpt lat="48.82296" lon="2.17605">
        <ele>123.37</ele>
        <time>2025-03-25T15:35:20Z</time>
      </trkpt>
      <trkpt lat="48.82294" lon="2.17621">
        <ele>123.02</ele>
        <time>2025-03-25T15:35:29Z</time>
      </trkpt>
      <trkpt lat="48.82294" lon="2.17642">
        <ele>123.16</ele>
        <time>2025-03-25T15:35:40Z</time>
      </trkpt>
      <trkpt lat="48.82293" lon="2.17644">
        <ele>123.25</ele>
        <time>2025-03-25T15:35:41Z</time>
      </trkpt>
      <trkpt lat="48.82292" lon="2.1765">
        <ele>122.88</ele>
        <time>2025-03-25T15:35:44Z</time>
      </trkpt>
      <trkpt lat="48.82294" lon="2.17668">
        <ele>122.91</ele>
        <time>2025-03-25T15:35:55Z</time>
      </trkpt>
      <trkpt lat="48.82293" lon="2.17688">
        <ele>123.24</ele>
        <time>2025-03-25T15:36:06Z</time>
      </trkpt>
      <trkpt lat="48.82293" lon="2.17714">
        <ele>122.92</ele>
        <time>2025-03-25T15:36:20Z</time>
      </trkpt>
      <trkpt lat="48.82291" lon="2.17737">
        <ele>122.96</ele>
        <time>2025-03-25T15:36:32Z</time>
      </trkpt>
      <trkpt lat="48.82288" lon="2.1776">
        <ele>122.07</ele>
        <time>2025-03-25T15:36:46Z</time>
      </trkpt>
      <trkpt lat="48.82286" lon="2.17787">
        <ele>121.85</ele>
        <time>2025-03-25T15:37:00Z</time>
      </trkpt>
      <trkpt lat="48.82284" lon="2.17798">
        <ele>121.81</ele>
        <time>2025-03-25T15:37:05Z</time>
      </trkpt>
      <trkpt lat="48.82281" lon="2.17824">
        <ele>121.55</ele>
        <time>2025-03-25T15:37:18Z</time>
      </trkpt>
      <trkpt lat="48.82279" lon="2.17845">
        <ele>121.09</ele>
        <time>2025-03-25T15:37:30Z</time>
      </trkpt>
      <trkpt lat="48.82275" lon="2.17868">
        <ele>121.3</ele>
        <time>2025-03-25T15:37:43Z</time>
      </trkpt>
      <trkpt lat="48.82273" lon="2.17896">
        <ele>121.36</ele>
        <time>2025-03-25T15:37:55Z</time>
      </trkpt>
      <trkpt lat="48.82272" lon="2.17899">
        <ele>120.95</ele>
        <time>2025-03-25T15:37:57Z</time>
      </trkpt>
      <trkpt lat="48.82269" lon="2.17911">
        <ele>120.73</ele>
        <time>2025-03-25T15:38:03Z</time>
      </trkpt>
      <trkpt lat="48.82266" lon="2.17926">
        <ele>120.35</ele>
        <time>2025-03-25T15:38:11Z</time>
      </trkpt>
      <trkpt lat="48.82257" lon="2.17956">
        <ele>119.32</ele>
        <time>2025-03-25T15:38:28Z</time>
      </trkpt>
      <trkpt lat="48.82247" lon="2.17976">
        <ele>117.13</ele>
        <time>2025-03-25T15:38:44Z</time>
      </trkpt>
      <trkpt lat="48.82238" lon="2.17994">
        <ele>114.12</ele>
        <time>2025-03-25T15:38:57Z</time>
      </trkpt>
      <trkpt lat="48.82231" lon="2.18011">
        <ele>111.81</ele>
        <time>2025-03-25T15:39:10Z</time>
      </trkpt>
      <trkpt lat="48.82226" lon="2.18025">
        <ele>109.38</ele>
        <time>2025-03-25T15:39:22Z</time>
      </trkpt>
      <trkpt lat="48.82221" lon="2.18047">
        <ele>106.74</ele>
        <time>2025-03-25T15:39:38Z</time>
      </trkpt>
      <trkpt lat="48.82219" lon="2.18063">
        <ele>104.03</ele>
        <time>2025-03-25T15:39:53Z</time>
      </trkpt>
      <trkpt lat="48.82214" lon="2.18085">
        <ele>100.66</ele>
        <time>2025-03-25T15:40:08Z</time>
      </trkpt>
      <trkpt lat="48.8221" lon="2.18101">
        <ele>98.76</ele>
        <time>2025-03-25T15:40:22Z</time>
      </trkpt>
      <trkpt lat="48.82207" lon="2.1811">
        <ele>96.65</ele>
        <time>2025-03-25T15:40:29Z</time>
      </trkpt>
      <trkpt lat="48.82204" lon="2.18126">
        <ele>95.12</ele>
        <time>2025-03-25T15:40:35Z</time>
      </trkpt>
      <trkpt lat="48.822" lon="2.1815">
        <ele>92.4</ele>
        <time>2025-03-25T15:40:48Z</time>
      </trkpt>
      <trkpt lat="48.82194" lon="2.18184">
        <ele>89.68</ele>
        <time>2025-03-25T15:41:05Z</time>
      </trkpt>
      <trkpt lat="48.82195" lon="2.18207">
        <ele>87.12</ele>
        <time>2025-03-25T15:41:19Z</time>
      </trkpt>
      <trkpt lat="48.82195" lon="2.18212">
        <ele>87.55</ele>
        <time>2025-03-25T15:41:22Z</time>
      </trkpt>
      <trkpt lat="48.82195" lon="2.18231">
        <ele>86.9</ele>
        <time>2025-03-25T15:41:37Z</time>
      </trkpt>
      <trkpt lat="48.82196" lon="2.18236">
        <ele>87.4</ele>
        <time>2025-03-25T15:41:51Z</time>
      </trkpt>
      <trkpt lat="48.82194" lon="2.1825">
        <ele>87.43</ele>
        <time>2025-03-25T15:42:00Z</time>
      </trkpt>
      <trkpt lat="48.82194" lon="2.18252">
        <ele>87.26</ele>
        <time>2025-03-25T15:42:01Z</time>
      </trkpt>
      <trkpt lat="48.82196" lon="2.18268">
        <ele>87.54</ele>
        <time>2025-03-25T15:42:12Z</time>
      </trkpt>
      <trkpt lat="48.82205" lon="2.18302">
        <ele>87.88</ele>
        <time>2025-03-25T15:42:32Z</time>
      </trkpt>
      <trkpt lat="48.82207" lon="2.18307">
        <ele>87.91</ele>
        <time>2025-03-25T15:42:35Z</time>
      </trkpt>
      <trkpt lat="48.82212" lon="2.18323">
        <ele>88.14</ele>
        <time>2025-03-25T15:42:49Z</time>
      </trkpt>
      <trkpt lat="48.82212" lon="2.18323">
        <ele>88.16</ele>
        <time>2025-03-25T15:42:51Z</time>
      </trkpt>
      <trkpt lat="48.82214" lon="2.18322">
        <ele>88.69</ele>
        <time>2025-03-25T15:42:53Z</time>
      </trkpt>
      <trkpt lat="48.82217" lon="2.18333">
        <ele>88.24</ele>
        <time>2025-03-25T15:43:04Z</time>
      </trkpt>
      <trkpt lat="48.8222" lon="2.18339">
        <ele>88.48</ele>
        <time>2025-03-25T15:43:09Z</time>
      </trkpt>
      <trkpt lat="48.82233" lon="2.18373">
        <ele>88.14</ele>
        <time>2025-03-25T15:43:29Z</time>
      </trkpt>
      <trkpt lat="48.82244" lon="2.18386">
        <ele>87.08</ele>
        <time>2025-03-25T15:43:37Z</time>
      </trkpt>
      <trkpt lat="48.82251" lon="2.18396">
        <ele>86.86</ele>
        <time>2025-03-25T15:43:46Z</time>
      </trkpt>
      <trkpt lat="48.82239" lon="2.18403">
        <ele>85.53</ele>
        <time>2025-03-25T15:43:54Z</time>
      </trkpt>
      <trkpt lat="48.82218" lon="2.18411">
        <ele>83.66</ele>
        <time>2025-03-25T15:44:10Z</time>
      </trkpt>
      <trkpt lat="48.82203" lon="2.18409">
        <ele>82.72</ele>
        <time>2025-03-25T15:44:26Z</time>
      </trkpt>
      <trkpt lat="48.82195" lon="2.18409">
        <ele>82.6</ele>
        <time>2025-03-25T15:44:33Z</time>
      </trkpt>
      <trkpt lat="48.82189" lon="2.18403">
        <ele>82.68</ele>
        <time>2025-03-25T15:44:43Z</time>
      </trkpt>
      <trkpt lat="48.82189" lon="2.184">
        <ele>82.79</ele>
        <time>2025-03-25T15:44:45Z</time>
      </trkpt>
      <trkpt lat="48.82186" lon="2.18384">
        <ele>82.81</ele>
        <time>2025-03-25T15:44:56Z</time>
      </trkpt>
      <trkpt lat="48.82181" lon="2.18368">
        <ele>82.59</ele>
        <time>2025-03-25T15:45:04Z</time>
      </trkpt>
      <trkpt lat="48.82178" lon="2.18353">
        <ele>83.19</ele>
        <time>2025-03-25T15:45:15Z</time>
      </trkpt>
      <trkpt lat="48.82175" lon="2.18341">
        <ele>82.95</ele>
        <time>2025-03-25T15:45:27Z</time>
      </trkpt>
      <trkpt lat="48.82168" lon="2.18318">
        <ele>83.36</ele>
        <time>2025-03-25T15:45:42Z</time>
      </trkpt>
      <trkpt lat="48.82158" lon="2.18297">
        <ele>83.28</ele>
        <time>2025-03-25T15:45:53Z</time>
      </trkpt>
      <trkpt lat="48.82155" lon="2.18291">
        <ele>83.09</ele>
        <time>2025-03-25T15:46:03Z</time>
      </trkpt>
      <trkpt lat="48.82154" lon="2.18286">
        <ele>83.41</ele>
        <time>2025-03-25T15:46:11Z</time>
      </trkpt>
      <trkpt lat="48.8215" lon="2.18278">
        <ele>83.06</ele>
        <time>2025-03-25T15:46:17Z</time>
      </trkpt>
      <trkpt lat="48.82145" lon="2.18268">
        <ele>83.24</ele>
        <time>2025-03-25T15:46:25Z</time>
      </trkpt>
      <trkpt lat="48.82133" lon="2.18245">
        <ele>82.9</ele>
        <time>2025-03-25T15:46:39Z</time>
      </trkpt>
      <trkpt lat="48.8213" lon="2.18235">
        <ele>82.66</ele>
        <time>2025-03-25T15:46:45Z</time>
      </trkpt>
      <trkpt lat="48.82126" lon="2.18226">
        <ele>82.89</ele>
        <time>2025-03-25T15:46:51Z</time>
      </trkpt>
      <trkpt lat="48.82125" lon="2.1822">
        <ele>82.81</ele>
        <time>2025-03-25T15:46:56Z</time>
      </trkpt>
      <trkpt lat="48.82117" lon="2.18202">
        <ele>82.93</ele>
        <time>2025-03-25T15:47:09Z</time>
      </trkpt>
      <trkpt lat="48.82108" lon="2.18182">
        <ele>82.75</ele>
        <time>2025-03-25T15:47:19Z</time>
      </trkpt>
      <trkpt lat="48.82105" lon="2.18165">
        <ele>83.13</ele>
        <time>2025-03-25T15:47:31Z</time>
      </trkpt>
      <trkpt lat="48.821" lon="2.18152">
        <ele>83.04</ele>
        <time>2025-03-25T15:47:43Z</time>
      </trkpt>
      <trkpt lat="48.82098" lon="2.18145">
        <ele>82.92</ele>
        <time>2025-03-25T15:47:59Z</time>
      </trkpt>
      <trkpt lat="48.82092" lon="2.18133">
        <ele>83.2</ele>
        <time>2025-03-25T15:48:11Z</time>
      </trkpt>
      <trkpt lat="48.82088" lon="2.18127">
        <ele>83.05</ele>
        <time>2025-03-25T15:48:28Z</time>
      </trkpt>
      <trkpt lat="48.82084" lon="2.18129">
        <ele>83.25</ele>
        <time>2025-03-25T15:48:50Z</time>
      </trkpt>
      <trkpt lat="48.82082" lon="2.18129">
        <ele>83.45</ele>
        <time>2025-03-25T15:49:08Z</time>
      </trkpt>
      <trkpt lat="48.82079" lon="2.18126">
        <ele>82.86</ele>
        <time>2025-03-25T15:49:28Z</time>
      </trkpt>
      <trkpt lat="48.82079" lon="2.18118">
        <ele>82.74</ele>
        <time>2025-03-25T15:49:33Z</time>
      </trkpt>
      <trkpt lat="48.82074" lon="2.18094">
        <ele>82.92</ele>
        <time>2025-03-25T15:49:47Z</time>
      </trkpt>
      <trkpt lat="48.82068" lon="2.18076">
        <ele>83.63</ele>
        <time>2025-03-25T15:50:01Z</time>
      </trkpt>
      <trkpt lat="48.82057" lon="2.18061">
        <ele>84.95</ele>
        <time>2025-03-25T15:50:12Z</time>
      </trkpt>
      <trkpt lat="48.82049" lon="2.18049">
        <ele>85.96</ele>
        <time>2025-03-25T15:50:21Z</time>
      </trkpt>
      <trkpt lat="48.82044" lon="2.18042">
        <ele>86.17</ele>
        <time>2025-03-25T15:50:27Z</time>
      </trkpt>
      <trkpt lat="48.82027" lon="2.18043">
        <ele>86.5</ele>
        <time>2025-03-25T15:50:39Z</time>
      </trkpt>
      <trkpt lat="48.82023" lon="2.18044">
        <ele>86.44</ele>
        <time>2025-03-25T15:50:42Z</time>
      </trkpt>
      <trkpt lat="48.82016" lon="2.18045">
        <ele>86.27</ele>
        <time>2025-03-25T15:50:47Z</time>
      </trkpt>
      <trkpt lat="48.82001" lon="2.18046">
        <ele>86.12</ele>
        <time>2025-03-25T15:50:59Z</time>
      </trkpt>
      <trkpt lat="48.81997" lon="2.18047">
        <ele>86.27</ele>
        <time>2025-03-25T15:51:02Z</time>
      </trkpt>
      <trkpt lat="48.81988" lon="2.18056">
        <ele>86.28</ele>
        <time>2025-03-25T15:51:10Z</time>
      </trkpt>
      <trkpt lat="48.81986" lon="2.18059">
        <ele>85.84</ele>
        <time>2025-03-25T15:51:12Z</time>
      </trkpt>
      <trkpt lat="48.81987" lon="2.18076">
        <ele>84.86</ele>
        <time>2025-03-25T15:51:22Z</time>
      </trkpt>
      <trkpt lat="48.81987" lon="2.18092">
        <ele>84.4</ele>
        <time>2025-03-25T15:51:30Z</time>
      </trkpt>
      <trkpt lat="48.81988" lon="2.181">
        <ele>84</ele>
        <time>2025-03-25T15:51:34Z</time>
      </trkpt>
      <trkpt lat="48.81989" lon="2.18108">
        <ele>84</ele>
        <time>2025-03-25T15:51:38Z</time>
      </trkpt>
      <trkpt lat="48.81991" lon="2.18119">
        <ele>83.08</ele>
        <time>2025-03-25T15:51:44Z</time>
      </trkpt>
      <trkpt lat="48.82" lon="2.18128">
        <ele>83.14</ele>
        <time>2025-03-25T15:51:53Z</time>
      </trkpt>
      <trkpt lat="48.82001" lon="2.18129">
        <ele>83.34</ele>
        <time>2025-03-25T15:51:54Z</time>
      </trkpt>
      <trkpt lat="48.82012" lon="2.18142">
        <ele>82.82</ele>
        <time>2025-03-25T15:52:04Z</time>
      </trkpt>
      <trkpt lat="48.82013" lon="2.18144">
        <ele>82.99</ele>
        <time>2025-03-25T15:52:06Z</time>
      </trkpt>
      <trkpt lat="48.82015" lon="2.18151">
        <ele>83.07</ele>
        <time>2025-03-25T15:52:10Z</time>
      </trkpt>
      <trkpt lat="48.82018" lon="2.18159">
        <ele>83.19</ele>
        <time>2025-03-25T15:52:15Z</time>
      </trkpt>
      <trkpt lat="48.82023" lon="2.18174">
        <ele>82.82</ele>
        <time>2025-03-25T15:52:23Z</time>
      </trkpt>
      <trkpt lat="48.82028" lon="2.18193">
        <ele>83.19</ele>
        <time>2025-03-25T15:52:33Z</time>
      </trkpt>
      <trkpt lat="48.82029" lon="2.18208">
        <ele>83.1</ele>
        <time>2025-03-25T15:52:41Z</time>
      </trkpt>
      <trkpt lat="48.82029" lon="2.18239">
        <ele>83.9</ele>
        <time>2025-03-25T15:53:00Z</time>
      </trkpt>
      <trkpt lat="48.82029" lon="2.18246">
        <ele>83.75</ele>
        <time>2025-03-25T15:53:03Z</time>
      </trkpt>
      <trkpt lat="48.82032" lon="2.18265">
        <ele>82.95</ele>
        <time>2025-03-25T15:53:12Z</time>
      </trkpt>
      <trkpt lat="48.82033" lon="2.18275">
        <ele>82.88</ele>
        <time>2025-03-25T15:53:17Z</time>
      </trkpt>
      <trkpt lat="48.82035" lon="2.18292">
        <ele>82.42</ele>
        <time>2025-03-25T15:53:24Z</time>
      </trkpt>
      <trkpt lat="48.82034" lon="2.18295">
        <ele>83.08</ele>
        <time>2025-03-25T15:53:25Z</time>
      </trkpt>
      <trkpt lat="48.8203" lon="2.18321">
        <ele>83.02</ele>
        <time>2025-03-25T15:53:34Z</time>
      </trkpt>
      <trkpt lat="48.82029" lon="2.18339">
        <ele>83.27</ele>
        <time>2025-03-25T15:53:41Z</time>
      </trkpt>
      <trkpt lat="48.8203" lon="2.18352">
        <ele>83.27</ele>
        <time>2025-03-25T15:53:52Z</time>
      </trkpt>
      <trkpt lat="48.8203" lon="2.18354">
        <ele>83.23</ele>
        <time>2025-03-25T15:53:53Z</time>
      </trkpt>
      <trkpt lat="48.8203" lon="2.18356">
        <ele>83.92</ele>
        <time>2025-03-25T15:53:54Z</time>
      </trkpt>
      <trkpt lat="48.8203" lon="2.18358">
        <ele>83.38</ele>
        <time>2025-03-25T15:53:55Z</time>
      </trkpt>
      <trkpt lat="48.8203" lon="2.1836">
        <ele>83.32</ele>
        <time>2025-03-25T15:53:56Z</time>
      </trkpt>
      <trkpt lat="48.8203" lon="2.18362">
        <ele>83.83</ele>
        <time>2025-03-25T15:53:57Z</time>
      </trkpt>
      <trkpt lat="48.82031" lon="2.18369">
        <ele>83.16</ele>
        <time>2025-03-25T15:54:02Z</time>
      </trkpt>
      <trkpt lat="48.82031" lon="2.1837">
        <ele>83.65</ele>
        <time>2025-03-25T15:54:03Z</time>
      </trkpt>
      <trkpt lat="48.82036" lon="2.18386">
        <ele>83.76</ele>
        <time>2025-03-25T15:54:14Z</time>
      </trkpt>
      <trkpt lat="48.82037" lon="2.18387">
        <ele>83.62</ele>
        <time>2025-03-25T15:54:15Z</time>
      </trkpt>
      <trkpt lat="48.82038" lon="2.18389">
        <ele>83.66</ele>
        <time>2025-03-25T15:54:16Z</time>
      </trkpt>
      <trkpt lat="48.82043" lon="2.184">
        <ele>83.73</ele>
        <time>2025-03-25T15:54:24Z</time>
      </trkpt>
      <trkpt lat="48.82044" lon="2.18401">
        <ele>84.14</ele>
        <time>2025-03-25T15:54:25Z</time>
      </trkpt>
      <trkpt lat="48.82046" lon="2.18405">
        <ele>83.98</ele>
        <time>2025-03-25T15:54:28Z</time>
      </trkpt>
      <trkpt lat="48.82047" lon="2.18407">
        <ele>84</ele>
        <time>2025-03-25T15:54:29Z</time>
      </trkpt>
      <trkpt lat="48.82048" lon="2.18409">
        <ele>83.66</ele>
        <time>2025-03-25T15:54:30Z</time>
      </trkpt>
      <trkpt lat="48.82052" lon="2.18419">
        <ele>84.07</ele>
        <time>2025-03-25T15:54:37Z</time>
      </trkpt>
      <trkpt lat="48.82053" lon="2.18421">
        <ele>84.07</ele>
        <time>2025-03-25T15:54:38Z</time>
      </trkpt>
      <trkpt lat="48.82053" lon="2.18423">
        <ele>84.08</ele>
        <time>2025-03-25T15:54:39Z</time>
      </trkpt>
      <trkpt lat="48.82054" lon="2.18425">
        <ele>84.07</ele>
        <time>2025-03-25T15:54:40Z</time>
      </trkpt>
      <trkpt lat="48.82056" lon="2.18428">
        <ele>84.29</ele>
        <time>2025-03-25T15:54:42Z</time>
      </trkpt>
      <trkpt lat="48.82057" lon="2.18435">
        <ele>83.58</ele>
        <time>2025-03-25T15:54:45Z</time>
      </trkpt>
      <trkpt lat="48.82063" lon="2.18458">
        <ele>84.38</ele>
        <time>2025-03-25T15:54:56Z</time>
      </trkpt>
      <trkpt lat="48.82065" lon="2.1846">
        <ele>84.14</ele>
        <time>2025-03-25T15:54:58Z</time>
      </trkpt>
      <trkpt lat="48.82066" lon="2.18458">
        <ele>83.98</ele>
        <time>2025-03-25T15:55:09Z</time>
      </trkpt>
      <trkpt lat="48.8206" lon="2.18461">
        <ele>87.61</ele>
        <time>2025-03-25T15:55:20Z</time>
      </trkpt>
      <trkpt lat="48.82047" lon="2.18473">
        <ele>88.84</ele>
        <time>2025-03-25T15:55:36Z</time>
      </trkpt>
      <trkpt lat="48.82042" lon="2.18479">
        <ele>89.58</ele>
        <time>2025-03-25T15:55:53Z</time>
      </trkpt>
      <trkpt lat="48.82037" lon="2.18488">
        <ele>90.67</ele>
        <time>2025-03-25T15:56:06Z</time>
      </trkpt>
      <trkpt lat="48.8203" lon="2.1849">
        <ele>90.99</ele>
        <time>2025-03-25T15:56:17Z</time>
      </trkpt>
      <trkpt lat="48.82026" lon="2.18489">
        <ele>91.81</ele>
        <time>2025-03-25T15:56:30Z</time>
      </trkpt>
      <trkpt lat="48.82017" lon="2.18493">
        <ele>92.83</ele>
        <time>2025-03-25T15:56:51Z</time>
      </trkpt>
      <trkpt lat="48.82007" lon="2.185">
        <ele>94.21</ele>
        <time>2025-03-25T15:57:04Z</time>
      </trkpt>
      <trkpt lat="48.81996" lon="2.18508">
        <ele>96.21</ele>
        <time>2025-03-25T15:57:17Z</time>
      </trkpt>
      <trkpt lat="48.81991" lon="2.18509">
        <ele>96.06</ele>
        <time>2025-03-25T15:57:26Z</time>
      </trkpt>
      <trkpt lat="48.81975" lon="2.1851">
        <ele>98.17</ele>
        <time>2025-03-25T15:57:38Z</time>
      </trkpt>
      <trkpt lat="48.81966" lon="2.18517">
        <ele>99.91</ele>
        <time>2025-03-25T15:57:49Z</time>
      </trkpt>
      <trkpt lat="48.81954" lon="2.18518">
        <ele>101.65</ele>
        <time>2025-03-25T15:58:02Z</time>
      </trkpt>
      <trkpt lat="48.81939" lon="2.18529">
        <ele>103.11</ele>
        <time>2025-03-25T15:58:16Z</time>
      </trkpt>
      <trkpt lat="48.81925" lon="2.18539">
        <ele>104.74</ele>
        <time>2025-03-25T15:58:29Z</time>
      </trkpt>
      <trkpt lat="48.81908" lon="2.18547">
        <ele>107.41</ele>
        <time>2025-03-25T15:58:44Z</time>
      </trkpt>
      <trkpt lat="48.81891" lon="2.18553">
        <ele>109.67</ele>
        <time>2025-03-25T15:59:00Z</time>
      </trkpt>
      <trkpt lat="48.81879" lon="2.18559">
        <ele>111.9</ele>
        <time>2025-03-25T15:59:13Z</time>
      </trkpt>
      <trkpt lat="48.81859" lon="2.18563">
        <ele>114</ele>
        <time>2025-03-25T15:59:28Z</time>
      </trkpt>
      <trkpt lat="48.81845" lon="2.18567">
        <ele>115.97</ele>
        <time>2025-03-25T15:59:42Z</time>
      </trkpt>
      <trkpt lat="48.81829" lon="2.18576">
        <ele>116.65</ele>
        <time>2025-03-25T15:59:57Z</time>
      </trkpt>
      <trkpt lat="48.81828" lon="2.18577">
        <ele>116.77</ele>
        <time>2025-03-25T15:59:58Z</time>
      </trkpt>
      <trkpt lat="48.81806" lon="2.18585">
        <ele>118.21</ele>
        <time>2025-03-25T16:00:17Z</time>
      </trkpt>
      <trkpt lat="48.8179" lon="2.18594">
        <ele>118.68</ele>
        <time>2025-03-25T16:00:31Z</time>
      </trkpt>
      <trkpt lat="48.81774" lon="2.18589">
        <ele>118.27</ele>
        <time>2025-03-25T16:00:43Z</time>
      </trkpt>
      <trkpt lat="48.81759" lon="2.18589">
        <ele>117.97</ele>
        <time>2025-03-25T16:00:52Z</time>
      </trkpt>
      <trkpt lat="48.81748" lon="2.1859">
        <ele>117.63</ele>
        <time>2025-03-25T16:01:04Z</time>
      </trkpt>
      <trkpt lat="48.81732" lon="2.1858">
        <ele>117.16</ele>
        <time>2025-03-25T16:01:15Z</time>
      </trkpt>
      <trkpt lat="48.8172" lon="2.18576">
        <ele>116.79</ele>
        <time>2025-03-25T16:01:27Z</time>
      </trkpt>
      <trkpt lat="48.81712" lon="2.18572">
        <ele>116.35</ele>
        <time>2025-03-25T16:01:39Z</time>
      </trkpt>
      <trkpt lat="48.81713" lon="2.1858">
        <ele>117.27</ele>
        <time>2025-03-25T16:02:56Z</time>
      </trkpt>
      <trkpt lat="48.81714" lon="2.18581">
        <ele>120.89</ele>
        <time>2025-03-25T16:07:06Z</time>
      </trkpt>
      <trkpt lat="48.81725" lon="2.18596">
        <ele>122.38</ele>
        <time>2025-03-25T16:07:33Z</time>
      </trkpt>
      <trkpt lat="48.81729" lon="2.18597">
        <ele>121.65</ele>
        <time>2025-03-25T16:07:48Z</time>
      </trkpt>
      <trkpt lat="48.81733" lon="2.18614">
        <ele>121.08</ele>
        <time>2025-03-25T16:08:02Z</time>
      </trkpt>
      <trkpt lat="48.81742" lon="2.18631">
        <ele>120.36</ele>
        <time>2025-03-25T16:08:16Z</time>
      </trkpt>
      <trkpt lat="48.81749" lon="2.18647">
        <ele>119.44</ele>
        <time>2025-03-25T16:08:28Z</time>
      </trkpt>
      <trkpt lat="48.8176" lon="2.18664">
        <ele>118.67</ele>
        <time>2025-03-25T16:08:44Z</time>
      </trkpt>
      <trkpt lat="48.81772" lon="2.18685">
        <ele>117.8</ele>
        <time>2025-03-25T16:09:00Z</time>
      </trkpt>
      <trkpt lat="48.81777" lon="2.18705">
        <ele>116.9</ele>
        <time>2025-03-25T16:09:12Z</time>
      </trkpt>
      <trkpt lat="48.81779" lon="2.1873">
        <ele>115.89</ele>
        <time>2025-03-25T16:09:26Z</time>
      </trkpt>
      <trkpt lat="48.8178" lon="2.18731">
        <ele>115.39</ele>
        <time>2025-03-25T16:09:27Z</time>
      </trkpt>
      <trkpt lat="48.8178" lon="2.18743">
        <ele>115.04</ele>
        <time>2025-03-25T16:09:33Z</time>
      </trkpt>
      <trkpt lat="48.81779" lon="2.18762">
        <ele>113.36</ele>
        <time>2025-03-25T16:09:45Z</time>
      </trkpt>
      <trkpt lat="48.81778" lon="2.18764">
        <ele>113.16</ele>
        <time>2025-03-25T16:09:46Z</time>
      </trkpt>
      <trkpt lat="48.81777" lon="2.18779">
        <ele>112.07</ele>
        <time>2025-03-25T16:09:56Z</time>
      </trkpt>
      <trkpt lat="48.81778" lon="2.18792">
        <ele>110.74</ele>
        <time>2025-03-25T16:10:03Z</time>
      </trkpt>
      <trkpt lat="48.81778" lon="2.18794">
        <ele>110.2</ele>
        <time>2025-03-25T16:10:04Z</time>
      </trkpt>
      <trkpt lat="48.81778" lon="2.18796">
        <ele>110.18</ele>
        <time>2025-03-25T16:10:05Z</time>
      </trkpt>
      <trkpt lat="48.8178" lon="2.18809">
        <ele>107.64</ele>
        <time>2025-03-25T16:10:15Z</time>
      </trkpt>
      <trkpt lat="48.81783" lon="2.18827">
        <ele>105.61</ele>
        <time>2025-03-25T16:10:27Z</time>
      </trkpt>
      <trkpt lat="48.81784" lon="2.18844">
        <ele>104.63</ele>
        <time>2025-03-25T16:10:39Z</time>
      </trkpt>
      <trkpt lat="48.81784" lon="2.18852">
        <ele>103.77</ele>
        <time>2025-03-25T16:10:44Z</time>
      </trkpt>
      <trkpt lat="48.81785" lon="2.18855">
        <ele>103.69</ele>
        <time>2025-03-25T16:10:45Z</time>
      </trkpt>
      <trkpt lat="48.81785" lon="2.18857">
        <ele>103.52</ele>
        <time>2025-03-25T16:10:46Z</time>
      </trkpt>
      <trkpt lat="48.81783" lon="2.18874">
        <ele>102.81</ele>
        <time>2025-03-25T16:10:57Z</time>
      </trkpt>
      <trkpt lat="48.81784" lon="2.18888">
        <ele>101.88</ele>
        <time>2025-03-25T16:11:05Z</time>
      </trkpt>
      <trkpt lat="48.81784" lon="2.1889">
        <ele>101.98</ele>
        <time>2025-03-25T16:11:06Z</time>
      </trkpt>
      <trkpt lat="48.81785" lon="2.18913">
        <ele>99.7</ele>
        <time>2025-03-25T16:11:19Z</time>
      </trkpt>
      <trkpt lat="48.81786" lon="2.18932">
        <ele>96.5</ele>
        <time>2025-03-25T16:11:33Z</time>
      </trkpt>
      <trkpt lat="48.81785" lon="2.18955">
        <ele>94.4</ele>
        <time>2025-03-25T16:11:49Z</time>
      </trkpt>
      <trkpt lat="48.81786" lon="2.18982">
        <ele>93.69</ele>
        <time>2025-03-25T16:12:02Z</time>
      </trkpt>
      <trkpt lat="48.81786" lon="2.19004">
        <ele>92.45</ele>
        <time>2025-03-25T16:12:14Z</time>
      </trkpt>
      <trkpt lat="48.81786" lon="2.19021">
        <ele>91.02</ele>
        <time>2025-03-25T16:12:23Z</time>
      </trkpt>
      <trkpt lat="48.81787" lon="2.19039">
        <ele>88.95</ele>
        <time>2025-03-25T16:12:33Z</time>
      </trkpt>
      <trkpt lat="48.8179" lon="2.19063">
        <ele>87.09</ele>
        <time>2025-03-25T16:12:47Z</time>
      </trkpt>
      <trkpt lat="48.81792" lon="2.19093">
        <ele>84.85</ele>
        <time>2025-03-25T16:13:02Z</time>
      </trkpt>
      <trkpt lat="48.81793" lon="2.19113">
        <ele>81.74</ele>
        <time>2025-03-25T16:13:16Z</time>
      </trkpt>
      <trkpt lat="48.81796" lon="2.19141">
        <ele>79.34</ele>
        <time>2025-03-25T16:13:34Z</time>
      </trkpt>
      <trkpt lat="48.81796" lon="2.19171">
        <ele>77.03</ele>
        <time>2025-03-25T16:13:48Z</time>
      </trkpt>
      <trkpt lat="48.81793" lon="2.19196">
        <ele>76.16</ele>
        <time>2025-03-25T16:14:00Z</time>
      </trkpt>
      <trkpt lat="48.81789" lon="2.19212">
        <ele>74.75</ele>
        <time>2025-03-25T16:14:10Z</time>
      </trkpt>
      <trkpt lat="48.81779" lon="2.19213">
        <ele>73.77</ele>
        <time>2025-03-25T16:14:22Z</time>
      </trkpt>
      <trkpt lat="48.81777" lon="2.19212">
        <ele>73.85</ele>
        <time>2025-03-25T16:14:23Z</time>
      </trkpt>
      <trkpt lat="48.81775" lon="2.19213">
        <ele>73.88</ele>
        <time>2025-03-25T16:14:24Z</time>
      </trkpt>
      <trkpt lat="48.81773" lon="2.19212">
        <ele>73.81</ele>
        <time>2025-03-25T16:14:25Z</time>
      </trkpt>
      <trkpt lat="48.81771" lon="2.19212">
        <ele>73.77</ele>
        <time>2025-03-25T16:14:26Z</time>
      </trkpt>
      <trkpt lat="48.8177" lon="2.19211">
        <ele>73.29</ele>
        <time>2025-03-25T16:14:27Z</time>
      </trkpt>
      <trkpt lat="48.81768" lon="2.19211">
        <ele>73.46</ele>
        <time>2025-03-25T16:14:28Z</time>
      </trkpt>
      <trkpt lat="48.81767" lon="2.19211">
        <ele>73.37</ele>
        <time>2025-03-25T16:14:29Z</time>
      </trkpt>
      <trkpt lat="48.81757" lon="2.19211">
        <ele>72.8</ele>
        <time>2025-03-25T16:14:39Z</time>
      </trkpt>
      <trkpt lat="48.81743" lon="2.19213">
        <ele>72.31</ele>
        <time>2025-03-25T16:14:52Z</time>
      </trkpt>
      <trkpt lat="48.81732" lon="2.19211">
        <ele>71.39</ele>
        <time>2025-03-25T16:15:01Z</time>
      </trkpt>
      <trkpt lat="48.8173" lon="2.19209">
        <ele>71.38</ele>
        <time>2025-03-25T16:15:02Z</time>
      </trkpt>
      <trkpt lat="48.81729" lon="2.19208">
        <ele>71.89</ele>
        <time>2025-03-25T16:15:03Z</time>
      </trkpt>
      <trkpt lat="48.81726" lon="2.19202">
        <ele>72.79</ele>
        <time>2025-03-25T16:15:16Z</time>
      </trkpt>
      <trkpt lat="48.81725" lon="2.19187">
        <ele>75.74</ele>
        <time>2025-03-25T16:15:31Z</time>
      </trkpt>
      <trkpt lat="48.81723" lon="2.1917">
        <ele>77.1</ele>
        <time>2025-03-25T16:15:43Z</time>
      </trkpt>
      <trkpt lat="48.81717" lon="2.19147">
        <ele>79.1</ele>
        <time>2025-03-25T16:15:57Z</time>
      </trkpt>
      <trkpt lat="48.81715" lon="2.19129">
        <ele>79.23</ele>
        <time>2025-03-25T16:16:09Z</time>
      </trkpt>
      <trkpt lat="48.81714" lon="2.19104">
        <ele>79.35</ele>
        <time>2025-03-25T16:16:22Z</time>
      </trkpt>
      <trkpt lat="48.8171" lon="2.19088">
        <ele>80.77</ele>
        <time>2025-03-25T16:16:35Z</time>
      </trkpt>
      <trkpt lat="48.81708" lon="2.19086">
        <ele>80.98</ele>
        <time>2025-03-25T16:16:37Z</time>
      </trkpt>
      <trkpt lat="48.81702" lon="2.1908">
        <ele>80.84</ele>
        <time>2025-03-25T16:16:41Z</time>
      </trkpt>
      <trkpt lat="48.81701" lon="2.19079">
        <ele>80.53</ele>
        <time>2025-03-25T16:16:42Z</time>
      </trkpt>
      <trkpt lat="48.81693" lon="2.1906">
        <ele>80.72</ele>
        <time>2025-03-25T16:16:54Z</time>
      </trkpt>
      <trkpt lat="48.81697" lon="2.1904">
        <ele>80.97</ele>
        <time>2025-03-25T16:17:05Z</time>
      </trkpt>
      <trkpt lat="48.81696" lon="2.19036">
        <ele>81.38</ele>
        <time>2025-03-25T16:17:07Z</time>
      </trkpt>
      <trkpt lat="48.81695" lon="2.19018">
        <ele>82.58</ele>
        <time>2025-03-25T16:17:17Z</time>
      </trkpt>
      <trkpt lat="48.81694" lon="2.19">
        <ele>81.95</ele>
        <time>2025-03-25T16:17:26Z</time>
      </trkpt>
      <trkpt lat="48.8169" lon="2.18972">
        <ele>82.17</ele>
        <time>2025-03-25T16:17:38Z</time>
      </trkpt>
      <trkpt lat="48.8169" lon="2.18962">
        <ele>82.34</ele>
        <time>2025-03-25T16:17:42Z</time>
      </trkpt>
      <trkpt lat="48.81689" lon="2.1896">
        <ele>82.81</ele>
        <time>2025-03-25T16:17:43Z</time>
      </trkpt>
      <trkpt lat="48.81685" lon="2.18932">
        <ele>83.17</ele>
        <time>2025-03-25T16:17:57Z</time>
      </trkpt>
      <trkpt lat="48.81681" lon="2.18918">
        <ele>83.17</ele>
        <time>2025-03-25T16:18:03Z</time>
      </trkpt>
      <trkpt lat="48.8168" lon="2.18916">
        <ele>83.34</ele>
        <time>2025-03-25T16:18:04Z</time>
      </trkpt>
      <trkpt lat="48.81678" lon="2.18914">
        <ele>83.49</ele>
        <time>2025-03-25T16:18:05Z</time>
      </trkpt>
      <trkpt lat="48.81677" lon="2.18913">
        <ele>83.36</ele>
        <time>2025-03-25T16:18:06Z</time>
      </trkpt>
      <trkpt lat="48.81668" lon="2.18898">
        <ele>84.31</ele>
        <time>2025-03-25T16:18:17Z</time>
      </trkpt>
      <trkpt lat="48.81666" lon="2.18895">
        <ele>84.16</ele>
        <time>2025-03-25T16:18:19Z</time>
      </trkpt>
      <trkpt lat="48.8166" lon="2.18886">
        <ele>84.04</ele>
        <time>2025-03-25T16:18:25Z</time>
      </trkpt>
      <trkpt lat="48.81654" lon="2.18875">
        <ele>85.1</ele>
        <time>2025-03-25T16:18:35Z</time>
      </trkpt>
      <trkpt lat="48.81653" lon="2.18867">
        <ele>85.94</ele>
        <time>2025-03-25T16:18:48Z</time>
      </trkpt>
      <trkpt lat="48.81648" lon="2.18848">
        <ele>87.9</ele>
        <time>2025-03-25T16:19:02Z</time>
      </trkpt>
      <trkpt lat="48.81641" lon="2.18826">
        <ele>90.83</ele>
        <time>2025-03-25T16:19:16Z</time>
      </trkpt>
      <trkpt lat="48.81636" lon="2.18802">
        <ele>93.83</ele>
        <time>2025-03-25T16:19:29Z</time>
      </trkpt>
      <trkpt lat="48.81631" lon="2.18786">
        <ele>97.05</ele>
        <time>2025-03-25T16:19:41Z</time>
      </trkpt>
      <trkpt lat="48.81627" lon="2.18767">
        <ele>99.14</ele>
        <time>2025-03-25T16:19:57Z</time>
      </trkpt>
      <trkpt lat="48.81619" lon="2.18762">
        <ele>98.53</ele>
        <time>2025-03-25T16:20:13Z</time>
      </trkpt>
      <trkpt lat="48.81606" lon="2.18758">
        <ele>98.79</ele>
        <time>2025-03-25T16:20:28Z</time>
      </trkpt>
      <trkpt lat="48.81603" lon="2.18757">
        <ele>98.56</ele>
        <time>2025-03-25T16:20:30Z</time>
      </trkpt>
      <trkpt lat="48.81594" lon="2.18756">
        <ele>98.6</ele>
        <time>2025-03-25T16:20:36Z</time>
      </trkpt>
      <trkpt lat="48.81587" lon="2.18755">
        <ele>99.09</ele>
        <time>2025-03-25T16:20:42Z</time>
      </trkpt>
      <trkpt lat="48.81576" lon="2.18746">
        <ele>99.78</ele>
        <time>2025-03-25T16:20:52Z</time>
      </trkpt>
      <trkpt lat="48.8157" lon="2.18739">
        <ele>100.6</ele>
        <time>2025-03-25T16:21:03Z</time>
      </trkpt>
      <trkpt lat="48.81569" lon="2.18738">
        <ele>100.61</ele>
        <time>2025-03-25T16:21:05Z</time>
      </trkpt>
      <trkpt lat="48.81559" lon="2.18734">
        <ele>100.55</ele>
        <time>2025-03-25T16:21:21Z</time>
      </trkpt>
      <trkpt lat="48.81548" lon="2.18731">
        <ele>99.85</ele>
        <time>2025-03-25T16:21:34Z</time>
      </trkpt>
      <trkpt lat="48.81546" lon="2.18729">
        <ele>100.14</ele>
        <time>2025-03-25T16:21:36Z</time>
      </trkpt>
      <trkpt lat="48.81539" lon="2.18722">
        <ele>99.74</ele>
        <time>2025-03-25T16:21:47Z</time>
      </trkpt>
      <trkpt lat="48.81527" lon="2.1871">
        <ele>100.7</ele>
        <time>2025-03-25T16:22:02Z</time>
      </trkpt>
      <trkpt lat="48.81523" lon="2.18706">
        <ele>101</ele>
        <time>2025-03-25T16:22:07Z</time>
      </trkpt>
      <trkpt lat="48.81512" lon="2.18699">
        <ele>100.62</ele>
        <time>2025-03-25T16:22:22Z</time>
      </trkpt>
      <trkpt lat="48.81509" lon="2.18698">
        <ele>100.97</ele>
        <time>2025-03-25T16:22:23Z</time>
      </trkpt>
      <trkpt lat="48.81497" lon="2.18686">
        <ele>100.33</ele>
        <time>2025-03-25T16:22:35Z</time>
      </trkpt>
      <trkpt lat="48.81486" lon="2.18673">
        <ele>101.58</ele>
        <time>2025-03-25T16:22:46Z</time>
      </trkpt>
      <trkpt lat="48.81477" lon="2.18665">
        <ele>101.83</ele>
        <time>2025-03-25T16:22:59Z</time>
      </trkpt>
      <trkpt lat="48.81467" lon="2.18647">
        <ele>101.97</ele>
        <time>2025-03-25T16:23:12Z</time>
      </trkpt>
      <trkpt lat="48.81455" lon="2.18634">
        <ele>102.15</ele>
        <time>2025-03-25T16:23:22Z</time>
      </trkpt>
      <trkpt lat="48.81439" lon="2.18619">
        <ele>102.12</ele>
        <time>2025-03-25T16:23:37Z</time>
      </trkpt>
      <trkpt lat="48.81427" lon="2.18609">
        <ele>102.05</ele>
        <time>2025-03-25T16:23:52Z</time>
      </trkpt>
      <trkpt lat="48.81414" lon="2.18581">
        <ele>103.04</ele>
        <time>2025-03-25T16:24:04Z</time>
      </trkpt>
      <trkpt lat="48.81407" lon="2.18569">
        <ele>103.26</ele>
        <time>2025-03-25T16:24:12Z</time>
      </trkpt>
      <trkpt lat="48.81398" lon="2.18565">
        <ele>102.9</ele>
        <time>2025-03-25T16:24:16Z</time>
      </trkpt>
      <trkpt lat="48.81389" lon="2.18561">
        <ele>102.49</ele>
        <time>2025-03-25T16:24:26Z</time>
      </trkpt>
      <trkpt lat="48.81387" lon="2.18559">
        <ele>102.2</ele>
        <time>2025-03-25T16:24:27Z</time>
      </trkpt>
      <trkpt lat="48.81376" lon="2.18552">
        <ele>102.52</ele>
        <time>2025-03-25T16:24:38Z</time>
      </trkpt>
      <trkpt lat="48.8136" lon="2.18549">
        <ele>100.71</ele>
        <time>2025-03-25T16:24:51Z</time>
      </trkpt>
      <trkpt lat="48.8134" lon="2.18547">
        <ele>99.91</ele>
        <time>2025-03-25T16:25:06Z</time>
      </trkpt>
      <trkpt lat="48.8133" lon="2.18548">
        <ele>99.71</ele>
        <time>2025-03-25T16:25:12Z</time>
      </trkpt>
      <trkpt lat="48.81317" lon="2.18558">
        <ele>98.74</ele>
        <time>2025-03-25T16:25:25Z</time>
      </trkpt>
      <trkpt lat="48.81306" lon="2.18591">
        <ele>123.234375</ele>
      </trkpt>
      <trkpt lat="48.81284" lon="2.18639">
        <ele>120.26171875</ele>
      </trkpt>
    </trkseg>
  </trk>
</gpx>